Flight Track Log - Related Links

Times and Time Zones

All times are in EDT time to prevent confusion due to time zone crossing. See the EVA18 flight status page for this flight to view local times or setup timezone preferences in your user account.

Time Position Orientation Groundspeed Altitude Reporting Facility
EDT Latitude Longitude Course Direction KTS MPH feet Rate Location/Type
Thu 09:01:00 AM 25.3711 121.7280 58° Northeast  Level FlightAware Approximate
Thu 09:02:00 AM 25.4472 121.8562 56° Northeast  Level FlightAware Approximate
Thu 09:03:00 AM 25.5239 121.9840 56° Northeast  Level FlightAware Approximate
Thu 09:04:00 AM 25.6001 122.1121 57° Northeast  Level FlightAware Approximate
Thu 09:05:00 AM 25.6754 122.2411 57° Northeast  Level FlightAware Approximate
Thu 09:06:00 AM 25.7500 122.3707 58° Northeast  Level FlightAware Approximate
Thu 09:07:00 AM 25.8242 122.5006 58° Northeast  Level FlightAware Approximate
Thu 09:07:54 AM 25.3980 121.5600 58° Northeast 408 470 16,800  Level FlightAware ADS-B
Thu 09:08:00 AM 25.8971 122.6314 58° Northeast  Level FlightAware Approximate
Thu 09:08:27 AM 25.4010 121.6440 88° East 421 484 18,400  Level FlightAware ADS-B
Thu 09:09:08 AM 25.4030 121.7200 88° East 423 487 18,700 867 Climbing FlightAware ADS-B
Thu 09:09:50 AM 25.4060 121.8090 88° East 423 487 19,600 1,906 Climbing FlightAware ADS-B
Thu 09:10:33 AM 25.4100 121.9230 88° East 442 509 21,400 1,440 Climbing FlightAware ADS-B
Thu 09:11:30 AM 25.4140 122.0330 88° East 445 512 22,000 1,174 Climbing FlightAware ADS-B
Thu 09:12:05 AM 25.4360 122.1250 75° East 459 528 23,200 1,481 Climbing FlightAware ADS-B
Thu 09:12:51 AM 25.4900 122.2100 55° Northeast 464 534 24,000 1,229 Climbing FlightAware ADS-B
Thu 09:13:28 AM 25.5440 122.2910 54° Northeast 470 541 24,900 621 Climbing FlightAware ADS-B
Thu 09:14:18 AM 25.6000 122.3730 53° Northeast 470 541 24,900  Level FlightAware ADS-B
Thu 09:14:54 AM 25.6400 122.4320 53° Northeast 470 541 24,900  Level FlightAware ADS-B
Thu 09:15:42 AM 25.6930 122.5100 53° Northeast 470 541 24,900  Level FlightAware ADS-B
Thu 09:16:18 AM 25.7330 122.5690 53° Northeast 470 541 24,900  Level FlightAware ADS-B
Thu 09:17:06 AM 25.7870 122.6480 53° Northeast 470 541 24,900 162 Level FlightAware ADS-B
Thu 09:19:00 AM 25.9699 122.8583 61° Northeast  Level Estimated
Thu 09:20:00 AM 26.0660 122.9693 58° Northeast  Level Estimated
Thu 09:21:00 AM 26.1621 123.0804 57° Northeast  Level Estimated
Thu 09:22:00 AM 26.2581 123.1917 57° Northeast  Level Estimated
Thu 09:23:00 AM 26.3188 123.3306 64° Northeast  Level FlightAware Approximate
Thu 09:24:00 AM 26.3795 123.4695 64° Northeast  Level FlightAware Approximate
Thu 09:25:00 AM 26.4751 123.5814 59° Northeast  Level Estimated
Thu 09:26:00 AM 26.5359 123.7205 64° Northeast  Level FlightAware Approximate
Thu 09:27:00 AM 26.5964 123.8598 64° Northeast  Level FlightAware Approximate
Thu 09:28:00 AM 26.6918 123.9722 50° Northeast  Level Estimated
Thu 09:29:00 AM 26.7765 124.0949 52° Northeast  Level FlightAware Approximate
Thu 09:30:00 AM 26.8612 124.2177 52° Northeast  Level FlightAware Approximate
Thu 09:31:00 AM 26.9457 124.3408 52° Northeast  Level FlightAware Approximate
Thu 09:32:00 AM 27.0301 124.4640 52° Northeast  Level FlightAware Approximate
Thu 09:33:00 AM 27.1144 124.5874 52° Northeast  Level FlightAware Approximate
Thu 09:34:00 AM 27.1987 124.7110 53° Northeast  Level FlightAware Approximate
Thu 09:35:00 AM 27.2827 124.8348 53° Northeast  Level FlightAware Approximate
Thu 09:36:00 AM 27.3667 124.9588 53° Northeast  Level FlightAware Approximate
Thu 09:37:00 AM 27.4612 125.0729 50° Northeast  Level Estimated
Thu 09:38:00 AM 27.5498 125.1929 50° Northeast  Level FlightAware Approximate
Thu 09:39:00 AM 27.6383 125.3132 50° Northeast  Level FlightAware Approximate
Thu 09:40:00 AM 27.7267 125.4336 50° Northeast  Level FlightAware Approximate
Thu 09:41:00 AM 27.8149 125.5543 50° Northeast  Level FlightAware Approximate
Thu 09:42:00 AM 27.9031 125.6751 50° Northeast  Level FlightAware Approximate
Thu 09:43:00 AM 27.9912 125.7961 50° Northeast  Level FlightAware Approximate
Thu 09:44:00 AM 28.0791 125.9174 51° Northeast  Level FlightAware Approximate
Thu 09:45:00 AM 28.1670 126.0388 51° Northeast  Level FlightAware Approximate
Thu 09:46:00 AM 28.2547 126.1604 51° Northeast  Level FlightAware Approximate
Thu 09:47:00 AM 28.3423 126.2823 51° Northeast  Level FlightAware Approximate
Thu 09:48:00 AM 28.4299 126.4043 51° Northeast  Level FlightAware Approximate
Thu 09:49:00 AM 28.5173 126.5265 51° Northeast  Level FlightAware Approximate
Thu 09:50:00 AM 28.6046 126.6489 51° Northeast  Level FlightAware Approximate
Thu 09:51:00 AM 28.6918 126.7716 51° Northeast  Level FlightAware Approximate
Thu 09:52:00 AM 28.7789 126.8944 51° Northeast  Level FlightAware Approximate
Thu 09:53:00 AM 28.8659 127.0175 51° Northeast  Level FlightAware Approximate
Thu 09:53:58 AM 29.0140 127.2310 51° Northeast 511 588 31,000  Level FlightAware ADS-B
Thu 09:54:00 AM 28.9527 127.1407 51° Northeast  Level FlightAware Approximate
Thu 09:54:46 AM 29.0760 127.3190 51° Northeast 512 589 31,000  Level FlightAware ADS-B
Thu 09:55:22 AM 29.1210 127.3830 51° Northeast 512 589 31,000  Level FlightAware ADS-B
Thu 09:56:11 AM 29.1840 127.4710 51° Northeast 512 589 31,000  Level FlightAware ADS-B
Thu 09:56:55 AM 29.2690 127.5950 52° Northeast 513 590 31,000  Level FlightAware ADS-B
Thu 09:57:31 AM 29.3150 127.6590 50° Northeast 513 590 31,000  Level FlightAware ADS-B
Thu 09:58:30 AM 29.4130 127.8020 52° Northeast 31,000  Level FlightAware ADS-B
Thu 09:59:42 AM 29.5180 127.9520 51° Northeast 31,000  Level FlightAware ADS-B
Thu 10:02:00 AM 29.7139 128.2410 52° Northeast  Level FlightAware Approximate
Thu 10:02:32 AM 29.7710 128.3200 52° Northeast 31,000  Level FlightAware ADS-B
Thu 10:05:00 AM 29.9781 128.6334 53° Northeast  Level FlightAware Approximate
Thu 10:06:00 AM 30.0628 128.7600 52° Northeast  Level FlightAware Approximate
Thu 10:07:00 AM 30.1476 128.8866 52° Northeast  Level FlightAware Approximate
Thu 10:08:00 AM 30.2323 129.0134 52° Northeast  Level FlightAware Approximate
Thu 10:09:00 AM 30.3169 129.1404 52° Northeast  Level FlightAware Approximate
Thu 10:10:00 AM 30.4014 129.2676 52° Northeast  Level FlightAware Approximate
Thu 10:10:00 AM 30.4340 129.2980 52° Northeast 519 597 31,000  Level FlightAware ADS-B
Thu 10:10:38 AM 30.4840 129.3980 60° Northeast 522 601 31,000  Level FlightAware ADS-B
Thu 10:11:24 AM 30.5330 129.5030 62° Northeast 522 601 31,000  Level FlightAware ADS-B
Thu 10:12:00 AM 30.5780 129.5940 60° Northeast 523 602 31,000  Level FlightAware ADS-B
Thu 10:12:37 AM 30.6220 129.6810 60° Northeast 523 602 31,000  Level FlightAware ADS-B
Thu 10:13:45 AM 30.7060 129.8500 60° Northeast 524 603 31,000  Level FlightAware ADS-B
Thu 10:14:22 AM 30.7480 129.9330 59° Northeast 525 604 31,000  Level FlightAware ADS-B
Thu 10:15:04 AM 30.8020 130.0430 60° Northeast 527 606 31,000  Level FlightAware ADS-B
Thu 10:15:40 AM 30.8480 130.1400 61° Northeast 527 606 31,000  Level FlightAware ADS-B
Thu 10:16:17 AM 30.8880 130.2240 61° Northeast 528 608 31,000  Level FlightAware ADS-B
Thu 10:17:04 AM 30.9440 130.3440 61° Northeast 528 608 31,000  Level FlightAware ADS-B
Thu 10:17:40 AM 30.9850 130.4300 61° Northeast 528 608 31,000  Level FlightAware ADS-B
Thu 10:18:24 AM 31.0350 130.5360 61° Northeast 528 608 31,000  Level FlightAware ADS-B
Thu 10:19:09 AM 31.0920 130.6560 61° Northeast 530 610 31,000  Level FlightAware ADS-B
Thu 10:19:51 AM 31.1400 130.7580 61° Northeast 531 611 31,000  Level FlightAware ADS-B
Thu 10:20:28 AM 31.1750 130.8350 62° Northeast 530 610 31,000  Level FlightAware ADS-B
Thu 10:21:04 AM 31.2260 130.9430 61° Northeast 532 612 31,000  Level FlightAware ADS-B
Thu 10:21:46 AM 31.2750 131.0480 61° Northeast 529 609 31,000  Level FlightAware ADS-B
Thu 10:22:34 AM 31.3320 131.1700 61° Northeast 531 611 31,000  Level FlightAware ADS-B
Thu 10:23:11 AM 31.3740 131.2620 62° Northeast 529 609 31,000  Level FlightAware ADS-B
Thu 10:23:51 AM 31.4200 131.3620 62° Northeast 526 605 31,000  Level FlightAware ADS-B
Thu 10:24:39 AM 31.4760 131.4840 62° Northeast 527 606 31,000  Level FlightAware ADS-B
Thu 10:25:21 AM 31.5250 131.5890 61° Northeast 526 605 31,000  Level FlightAware ADS-B
Thu 10:25:58 AM 31.5660 131.6800 62° Northeast 528 608 31,000  Level FlightAware ADS-B
Thu 10:26:38 AM 31.6120 131.7820 62° Northeast 528 608 31,000  Level FlightAware ADS-B
Thu 10:27:14 AM 31.6500 131.8650 62° Northeast 527 606 31,000  Level FlightAware ADS-B
Thu 10:28:02 AM 31.7090 131.9930 62° Northeast 528 608 31,000  Level FlightAware ADS-B
Thu 10:28:39 AM 31.7500 132.0850 62° Northeast 529 609 31,000  Level FlightAware ADS-B
Thu 10:29:37 AM 31.8180 132.2350 62° Northeast 530 610 31,000  Level FlightAware ADS-B
Thu 10:30:19 AM 31.8660 132.3430 62° Northeast 532 612 31,000  Level FlightAware ADS-B
Thu 10:31:01 AM 31.9150 132.4510 62° Northeast 534 615 31,000  Level FlightAware ADS-B
Thu 10:31:38 AM 31.9550 132.5410 62° Northeast 533 613 31,000  Level FlightAware ADS-B
Thu 10:32:31 AM 32.0200 132.6870 62° Northeast 534 615 31,000  Level FlightAware ADS-B
Thu 10:33:06 AM 32.0580 132.7730 62° Northeast 532 612 31,000  Level FlightAware ADS-B
Thu 10:33:36 AM 32.0940 132.8540 62° Northeast 532 612 31,000  Level FlightAware ADS-B
Thu 10:34:21 AM 32.1410 132.9610 63° Northeast 533 613 31,000  Level FlightAware ADS-B
Thu 10:35:01 AM 32.1870 133.0650 62° Northeast 534 615 31,000  Level FlightAware ADS-B
Thu 10:35:36 AM 32.2290 133.1600 62° Northeast 534 615 31,000  Level FlightAware ADS-B
Thu 10:36:19 AM 32.2750 133.2650 63° Northeast 535 616 31,000  Level FlightAware ADS-B
Thu 10:37:27 AM 32.3460 133.4290 63° Northeast 537 618 31,000  Level FlightAware ADS-B
Thu 10:38:09 AM 32.4000 133.5530 63° Northeast 538 619 31,000  Level FlightAware ADS-B
Thu 10:38:49 AM 32.4480 133.6630 63° Northeast 538 619 31,000  Level FlightAware ADS-B
Thu 10:39:49 AM 32.5120 133.8120 63° Northeast 537 618 31,000  Level FlightAware ADS-B
Thu 10:40:24 AM 32.5530 133.9060 63° Northeast 539 620 31,000  Level FlightAware ADS-B
Thu 10:41:04 AM 32.6010 134.0180 63° Northeast 538 619 31,000  Level FlightAware ADS-B
Thu 10:41:49 AM 32.6520 134.1370 63° Northeast 536 617 31,000  Level FlightAware ADS-B
Thu 10:42:39 AM 32.7080 134.2690 63° Northeast 537 618 31,000  Level FlightAware ADS-B
Thu 10:43:19 AM 32.7510 134.3710 63° Northeast 539 620 31,000  Level FlightAware ADS-B
Thu 10:44:04 AM 32.8000 134.4960 65° Northeast 542 624 31,000  Level FlightAware ADS-B
Thu 10:44:44 AM 32.8390 134.6030 67° East 537 618 31,000  Level FlightAware ADS-B
Thu 10:45:29 AM 32.8830 134.7260 67° East 536 617 31,000  Level FlightAware ADS-B
Thu 10:46:09 AM 32.9220 134.8340 67° East 535 616 31,000  Level FlightAware ADS-B
Thu 10:46:49 AM 32.9620 134.9430 66° East 538 619 31,000  Level FlightAware ADS-B
Thu 10:47:34 AM 33.0040 135.0600 67° East 539 620 31,000  Level FlightAware ADS-B
Thu 10:48:15 AM 33.0450 135.1720 66° East 539 620 31,000  Level FlightAware ADS-B
Thu 10:48:54 AM 33.0850 135.2830 67° East 540 621 31,000  Level FlightAware ADS-B
Thu 10:49:39 AM 33.1290 135.4060 67° East 540 621 31,000  Level FlightAware ADS-B
Thu 10:50:19 AM 33.1670 135.5160 68° East 543 625 31,000  Level FlightAware ADS-B
Thu 10:51:14 AM 33.2200 135.6680 67° East 544 626 31,000  Level FlightAware ADS-B
Thu 10:51:54 AM 33.2590 135.7790 67° East 545 627 31,000  Level FlightAware ADS-B
Thu 10:52:39 AM 33.3030 135.9050 67° East 545 627 31,000  Level FlightAware ADS-B
Thu 10:53:19 AM 33.3410 136.0150 68° East 544 626 31,000  Level FlightAware ADS-B
Thu 10:53:54 AM 33.3740 136.1100 67° East 545 627 31,000  Level FlightAware ADS-B
Thu 10:54:34 AM 33.4130 136.2230 68° East 543 625 31,000  Level FlightAware ADS-B
Thu 10:55:14 AM 33.4510 136.3330 67° East 540 621 31,000  Level FlightAware ADS-B
Thu 10:55:56 AM 33.4910 136.4510 68° East 536 617 31,000  Level FlightAware ADS-B
Thu 10:56:36 AM 33.5290 136.5620 68° East 534 615 31,000  Level FlightAware ADS-B
Thu 10:57:21 AM 33.5710 136.6860 68° East 535 616 31,000  Level FlightAware ADS-B
Thu 10:58:06 AM 33.6130 136.8100 68° East 538 619 31,000  Level FlightAware ADS-B
Thu 10:58:41 AM 33.6460 136.9080 68° East 537 618 31,000  Level FlightAware ADS-B
Thu 10:59:16 AM 33.6780 137.0040 68° East 539 620 31,000 720 Level FlightAware ADS-B
Thu 10:59:56 AM 33.7160 137.1160 68° East 537 618 31,900 1,267 Climbing FlightAware ADS-B
Thu 11:00:46 AM 33.7610 137.2520 68° East 534 615 32,900 733 Climbing FlightAware ADS-B
Thu 11:01:26 AM 33.7990 137.3660 68° East 535 616 33,000 92 Climbing FlightAware ADS-B
Thu 11:01:51 AM 33.8210 137.4320 68° East 536 617 33,000  Level FlightAware ADS-B
Thu 11:02:36 AM 33.8650 137.5570 67° East 530 610 33,000  Level FlightAware ADS-B
Thu 11:03:16 AM 33.9140 137.6580 60° Northeast 527 606 33,000  Level FlightAware ADS-B
Thu 11:03:51 AM 33.9580 137.7500 60° Northeast 526 605 33,000  Level FlightAware ADS-B
Thu 11:04:37 AM 34.0130 137.8630 60° Northeast 525 604 33,000  Level FlightAware ADS-B
Thu 11:05:16 AM 34.0620 137.9640 60° Northeast 523 602 33,000  Level FlightAware ADS-B
Thu 11:05:51 AM 34.1050 138.0550 60° Northeast 528 608 33,000  Level FlightAware ADS-B
Thu 11:06:37 AM 34.1590 138.1700 60° Northeast 526 605 33,000  Level FlightAware ADS-B
Thu 11:07:16 AM 34.2070 138.2720 60° Northeast 521 600 33,000  Level FlightAware ADS-B
Thu 11:08:01 AM 34.2610 138.3860 60° Northeast 520 598 33,000  Level FlightAware ADS-B
Thu 11:08:41 AM 34.3130 138.4860 58° Northeast 521 600 33,000  Level FlightAware ADS-B
Thu 11:09:21 AM 34.3640 138.5830 57° Northeast 522 601 33,000  Level FlightAware ADS-B
Thu 11:10:01 AM 34.4090 138.6860 62° Northeast 524 603 33,000  Level FlightAware ADS-B
Thu 11:10:46 AM 34.4510 138.8100 68° East 524 603 33,000  Level FlightAware ADS-B
Thu 11:11:31 AM 34.4810 138.9310 73° East 526 605 33,000  Level FlightAware ADS-B
Thu 11:12:11 AM 34.4970 139.0090 76° East 523 602 33,000  Level FlightAware ADS-B
Thu 11:12:51 AM 34.5400 139.1620 71° East 525 604 33,000  Level FlightAware ADS-B
Thu 11:13:37 AM 34.5740 139.2880 72° East 524 603 33,000  Level FlightAware ADS-B
Thu 11:14:15 AM 34.6050 139.3970 71° East 524 603 33,000  Level FlightAware ADS-B
Thu 11:15:00 AM 34.6390 139.5160 71° East 523 602 33,000  Level FlightAware ADS-B
Thu 11:15:36 AM 34.6670 139.6160 71° East 520 598 33,000  Level FlightAware ADS-B
Thu 11:16:21 AM 34.7030 139.7430 71° East 521 600 33,000  Level FlightAware ADS-B
Thu 11:17:01 AM 34.7330 139.8550 72° East 519 597 33,000  Level FlightAware ADS-B
Thu 11:17:36 AM 34.7580 139.9420 71° East 519 597 33,000  Level FlightAware ADS-B
Thu 11:18:21 AM 34.7940 140.0750 72° East 517 595 33,000  Level FlightAware ADS-B
Thu 11:19:01 AM 34.8250 140.1860 71° East 517 595 33,000  Level FlightAware ADS-B
Thu 11:19:36 AM 34.8520 140.2830 71° East 520 598 33,000  Level FlightAware ADS-B
Thu 11:20:21 AM 34.8850 140.4040 72° East 517 595 33,000  Level FlightAware ADS-B
Thu 11:21:01 AM 34.9160 140.5170 71° East 516 594 33,000  Level FlightAware ADS-B
Thu 11:21:36 AM 34.9420 140.6130 72° East 515 593 33,000  Level FlightAware ADS-B
Thu 11:22:16 AM 34.9690 140.7150 72° East 515 593 33,000  Level FlightAware ADS-B
Thu 11:23:01 AM 35.0050 140.8450 71° East 515 593 33,000  Level FlightAware ADS-B
Thu 11:23:46 AM 35.0380 140.9690 72° East 517 595 33,000  Level FlightAware ADS-B
Thu 11:24:26 AM 35.0680 141.0830 72° East 517 595 33,000  Level FlightAware ADS-B
Thu 11:25:06 AM 35.0970 141.1920 72° East 508 585 33,000  Level FlightAware ADS-B
Thu 11:25:51 AM 35.1300 141.3140 72° East 508 585 33,000  Level FlightAware ADS-B
Thu 11:26:26 AM 35.1550 141.4110 72° East 508 585 33,000  Level FlightAware ADS-B
Thu 11:27:11 AM 35.1880 141.5350 72° East 509 586 33,000  Level FlightAware ADS-B
Thu 11:27:51 AM 35.2170 141.6450 72° East 508 585 33,000  Level FlightAware ADS-B
Thu 11:28:26 AM 35.2410 141.7380 72° East 510 587 33,000  Level FlightAware ADS-B
Thu 11:29:06 AM 35.2680 141.8440 73° East 510 587 33,000  Level FlightAware ADS-B
Thu 11:29:46 AM 35.2990 141.9610 72° East 512 589 33,000  Level FlightAware ADS-B
Thu 11:30:36 AM 35.3340 142.1000 73° East 512 589 33,000  Level FlightAware ADS-B
Thu 11:31:21 AM 35.3650 142.2210 73° East 512 589 33,000  Level FlightAware ADS-B
Thu 11:32:01 AM 35.3940 142.3330 72° East 512 589 33,000  Level FlightAware ADS-B
Thu 11:32:46 AM 35.4240 142.4520 73° East 513 590 33,000  Level FlightAware ADS-B
Thu 11:33:11 AM 35.4440 142.5300 73° East 514 592 33,000  Level FlightAware ADS-B
Thu 11:33:51 AM 35.4710 142.6370 73° East 514 592 33,000  Level FlightAware ADS-B
Thu 11:34:21 AM 35.4930 142.7280 73° East 512 589 33,000  Level FlightAware ADS-B
Thu 11:35:01 AM 35.5210 142.8400 73° East 515 593 33,000  Level FlightAware ADS-B
Thu 11:35:47 AM 35.5500 142.9530 72° East 515 593 33,000  Level FlightAware ADS-B
Thu 11:36:27 AM 35.5780 143.0670 73° East 512 589 33,000  Level FlightAware ADS-B
Thu 11:37:23 AM 35.6170 143.2270 73° East 512 589 33,000  Level FlightAware ADS-B
Thu 11:38:19 AM 35.6550 143.3820 73° East 510 587 33,000  Level FlightAware ADS-B
Thu 11:39:02 AM 35.6820 143.4930 73° East 509 586 33,000  Level FlightAware ADS-B
Thu 11:39:41 AM 35.7060 143.5890 73° East 509 586 33,000  Level FlightAware ADS-B
Thu 11:40:29 AM 35.7430 143.7460 74° East 33,000  Level FlightAware ADS-B
Thu 11:41:18 AM 35.7740 143.8770 74° East 510 587 33,000  Level FlightAware ADS-B
Thu 11:41:59 AM 35.7980 143.9740 73° East 510 587 33,000  Level FlightAware ADS-B
Thu 11:42:34 AM 35.8190 144.0560 72° East 510 587 33,000  Level FlightAware ADS-B
Thu 11:43:23 AM 35.8480 144.1720 73° East 510 587 33,000  Level FlightAware ADS-B
Thu 11:43:59 AM 35.8690 144.2580 73° East 510 587 33,000  Level FlightAware ADS-B
Thu 11:44:33 AM 35.8890 144.3380 73° East 510 587 33,000  Level FlightAware ADS-B
Thu 11:45:21 AM 35.9170 144.4520 73° East 510 587 33,000  Level FlightAware ADS-B
Thu 11:45:57 AM 35.9380 144.5370 73° East 510 587 33,000  Level FlightAware ADS-B
Thu 11:46:34 AM 35.9600 144.6250 73° East 510 587 33,000  Level FlightAware ADS-B
Thu 11:47:23 AM 35.9880 144.7410 73° East 510 587 33,000  Level FlightAware ADS-B
Thu 11:47:59 AM 36.0090 144.8260 73° East 510 587 33,000  Level FlightAware ADS-B
Thu 11:48:42 AM 36.0640 145.1200 77° East 502 578 33,000  Level FlightAware ADS-B
Thu 11:49:30 AM 36.0910 145.2360 74° East 503 579 33,000  Level FlightAware ADS-B
Thu 11:50:06 AM 36.1100 145.3210 75° East 503 579 33,000  Level FlightAware ADS-B
Thu 11:50:53 AM 36.1360 145.4310 74° East 503 579 33,000  Level FlightAware ADS-B
Thu 11:51:27 AM 36.1550 145.5110 74° East 503 579 33,000  Level FlightAware ADS-B
Thu 11:52:03 AM 36.1740 145.5960 74° East 503 579 33,000  Level FlightAware ADS-B
Thu 11:53:06 AM 36.2080 145.7450 74° East 503 579 33,000  Level FlightAware ADS-B
Thu 11:53:40 AM 36.2270 145.8250 74° East 503 579 33,000  Level FlightAware ADS-B
Thu 11:54:17 AM 36.2470 145.9120 74° East 503 579 33,000  Level FlightAware ADS-B
Thu 11:55:06 AM 36.2740 146.0280 74° East 503 579 33,000  Level FlightAware ADS-B
Thu 11:55:42 AM 36.2930 146.1120 74° East 503 579 33,000  Level FlightAware ADS-B
Thu 11:56:40 AM 36.3250 146.2490 74° East 503 579 33,000  Level FlightAware ADS-B
Thu 11:57:17 AM 36.3450 146.3370 74° East 503 579 33,000  Level FlightAware ADS-B
Thu 11:58:06 AM 36.3720 146.4520 74° East 503 579 33,000  Level FlightAware ADS-B
Thu 11:58:40 AM 36.3900 146.5330 75° East 503 579 33,000 Level FlightAware ADS-B
Thu 12:01:00 PM 36.4904 146.9149 72° East  Level FlightAware Approximate
Thu 12:02:00 PM 36.5331 147.0788 72° East  Level FlightAware Approximate
Thu 12:03:00 PM 36.5755 147.2430 72° East  Level FlightAware Approximate
Thu 12:04:00 PM 36.6177 147.4073 72° East  Level FlightAware Approximate
Thu 12:05:00 PM 36.6597 147.5718 72° East  Level FlightAware Approximate
Thu 12:06:00 PM 36.7015 147.7365 72° East  Level FlightAware Approximate
Thu 12:07:00 PM 36.7430 147.9013 73° East  Level FlightAware Approximate
Thu 12:08:00 PM 36.7843 148.0664 73° East  Level FlightAware Approximate
Thu 12:09:00 PM 36.8254 148.2316 73° East  Level FlightAware Approximate
Thu 12:10:00 PM 36.8662 148.3970 73° East  Level FlightAware Approximate
Thu 12:11:00 PM 36.8917 148.5678 84° East  Level FlightAware Approximate
Thu 12:12:00 PM 36.9056 148.7401 84° East  Level FlightAware Approximate
Thu 12:13:00 PM 36.9193 148.9125 84° East  Level FlightAware Approximate
Thu 12:14:00 PM 36.9328 149.0849 84° East  Level FlightAware Approximate
Thu 12:15:00 PM 36.9460 149.2574 84° East  Level FlightAware Approximate
Thu 12:16:00 PM 36.9590 149.4300 85° East  Level FlightAware Approximate
Thu 12:17:00 PM 36.9717 149.6026 85° East  Level FlightAware Approximate
Thu 12:18:00 PM 36.9842 149.7753 85° East  Level FlightAware Approximate
Thu 12:19:00 PM 36.9964 149.9481 85° East  Level FlightAware Approximate
Thu 12:20:00 PM 37.0169 150.1194 80° East  Level FlightAware Approximate
Thu 12:21:00 PM 37.0409 150.2903 80° East  Level FlightAware Approximate
Thu 12:22:00 PM 37.0646 150.4613 80° East  Level FlightAware Approximate
Thu 12:23:00 PM 37.0880 150.6324 80° East  Level FlightAware Approximate
Thu 12:24:00 PM 37.1113 150.8036 80° East  Level FlightAware Approximate
Thu 12:25:00 PM 37.1342 150.9749 80° East  Level FlightAware Approximate
Thu 12:26:00 PM 37.1570 151.1464 81° East  Level FlightAware Approximate
Thu 12:27:00 PM 37.1794 151.3179 81° East  Level FlightAware Approximate
Thu 12:28:00 PM 37.2017 151.4895 81° East  Level FlightAware Approximate
Thu 12:29:00 PM 37.2237 151.6612 81° East  Level FlightAware Approximate
Thu 12:30:00 PM 37.2454 151.8330 81° East  Level FlightAware Approximate
Thu 12:31:00 PM 37.2669 152.0050 81° East  Level FlightAware Approximate
Thu 12:32:00 PM 37.2881 152.1770 81° East  Level FlightAware Approximate
Thu 12:33:00 PM 37.3091 152.3491 81° East  Level FlightAware Approximate
Thu 12:34:00 PM 37.3299 152.5213 81° East  Level FlightAware Approximate
Thu 12:35:00 PM 37.3503 152.6936 81° East  Level FlightAware Approximate
Thu 12:36:00 PM 37.3706 152.8660 82° East  Level FlightAware Approximate
Thu 12:37:00 PM 37.3906 153.0385 82° East  Level FlightAware Approximate
Thu 12:38:00 PM 37.4103 153.2110 82° East  Level FlightAware Approximate
Thu 12:39:00 PM 37.4298 153.3837 82° East  Level FlightAware Approximate
Thu 12:40:00 PM 37.4491 153.5565 82° East  Level FlightAware Approximate
Thu 12:41:00 PM 37.4681 153.7293 82° East  Level FlightAware Approximate
Thu 12:42:00 PM 37.4873 153.9022 82° East  Level FlightAware Approximate
Thu 12:43:00 PM 37.5063 154.0751 82° East  Level FlightAware Approximate
Thu 12:44:00 PM 37.5251 154.2481 82° East  Level FlightAware Approximate
Thu 12:45:00 PM 37.5435 154.4212 82° East  Level FlightAware Approximate
Thu 12:46:00 PM 37.5618 154.5945 82° East  Level FlightAware Approximate
Thu 12:47:00 PM 37.5797 154.7677 82° East  Level FlightAware Approximate
Thu 12:48:00 PM 37.5975 154.9411 83° East  Level FlightAware Approximate
Thu 12:49:00 PM 37.6149 155.1145 83° East  Level FlightAware Approximate
Thu 12:50:00 PM 37.6321 155.2881 83° East  Level FlightAware Approximate
Thu 12:51:00 PM 37.6491 155.4617 83° East  Level FlightAware Approximate
Thu 12:52:00 PM 37.6658 155.6353 83° East  Level FlightAware Approximate
Thu 12:53:00 PM 37.6822 155.8091 83° East  Level FlightAware Approximate
Thu 12:54:00 PM 37.6984 155.9830 83° East  Level FlightAware Approximate
Thu 12:55:00 PM 37.7144 156.1569 83° East  Level FlightAware Approximate
Thu 12:56:00 PM 37.7301 156.3309 83° East  Level FlightAware Approximate
Thu 12:57:00 PM 37.7455 156.5049 84° East  Level FlightAware Approximate
Thu 12:58:00 PM 37.7607 156.6790 84° East  Level FlightAware Approximate
Thu 12:59:00 PM 37.7756 156.8532 84° East  Level FlightAware Approximate
Thu 01:00:00 PM 37.7902 157.0275 84° East  Level FlightAware Approximate
Thu 01:01:00 PM 37.8046 157.2018 84° East  Level FlightAware Approximate
Thu 01:02:00 PM 37.8188 157.3763 84° East  Level FlightAware Approximate
Thu 01:03:00 PM 37.8327 157.5507 84° East  Level FlightAware Approximate
Thu 01:04:00 PM 37.8463 157.7253 84° East  Level FlightAware Approximate
Thu 01:05:00 PM 37.8597 157.8999 84° East  Level FlightAware Approximate
Thu 01:06:00 PM 37.8728 158.0746 85° East  Level FlightAware Approximate
Thu 01:07:00 PM 37.8857 158.2493 85° East  Level FlightAware Approximate
Thu 01:08:00 PM 37.8983 158.4241 85° East  Level FlightAware Approximate
Thu 01:09:00 PM 37.9106 158.5989 85° East  Level FlightAware Approximate
Thu 01:10:00 PM 37.9227 158.7738 85° East  Level FlightAware Approximate
Thu 01:11:00 PM 37.9345 158.9488 85° East  Level FlightAware Approximate
Thu 01:12:00 PM 37.9461 159.1238 85° East  Level FlightAware Approximate
Thu 01:13:00 PM 37.9574 159.2989 85° East  Level FlightAware Approximate
Thu 01:14:00 PM 37.9684 159.4740 85° East  Level FlightAware Approximate
Thu 01:15:00 PM 37.9792 159.6492 85° East  Level FlightAware Approximate
Thu 01:16:00 PM 37.9897 159.8244 86° East  Level FlightAware Approximate
Thu 01:17:00 PM 38.0000 159.9997 86° East  Level FlightAware Approximate
Thu 01:18:00 PM 38.0707 160.1508 59° Northeast  Level FlightAware Approximate
Thu 01:19:00 PM 38.1414 160.3022 59° Northeast  Level FlightAware Approximate
Thu 01:20:00 PM 38.2119 160.4539 59° Northeast  Level FlightAware Approximate
Thu 01:21:00 PM 38.2822 160.6059 59° Northeast  Level FlightAware Approximate
Thu 01:22:00 PM 38.3522 160.7582 60° Northeast  Level FlightAware Approximate
Thu 01:23:00 PM 38.4221 160.9107 60° Northeast  Level FlightAware Approximate
Thu 01:24:00 PM 38.4918 161.0636 60° Northeast  Level FlightAware Approximate
Thu 01:25:00 PM 38.5613 161.2168 60° Northeast  Level FlightAware Approximate
Thu 01:26:00 PM 38.6306 161.3702 60° Northeast  Level FlightAware Approximate
Thu 01:27:00 PM 38.6997 161.5240 60° Northeast  Level FlightAware Approximate
Thu 01:28:00 PM 38.7686 161.6780 60° Northeast  Level FlightAware Approximate
Thu 01:29:00 PM 38.8373 161.8324 60° Northeast  Level FlightAware Approximate
Thu 01:30:00 PM 38.9058 161.9870 60° Northeast  Level FlightAware Approximate
Thu 01:31:00 PM 38.9740 162.1420 60° Northeast  Level FlightAware Approximate
Thu 01:32:00 PM 39.0421 162.2972 61° Northeast  Level FlightAware Approximate
Thu 01:33:00 PM 39.1100 162.4527 61° Northeast  Level FlightAware Approximate
Thu 01:34:00 PM 39.1776 162.6086 61° Northeast  Level FlightAware Approximate
Thu 01:35:00 PM 39.2451 162.7647 61° Northeast  Level FlightAware Approximate
Thu 01:36:00 PM 39.3123 162.9212 61° Northeast  Level FlightAware Approximate
Thu 01:37:00 PM 39.3793 163.0779 61° Northeast  Level FlightAware Approximate
Thu 01:38:00 PM 39.4462 163.2350 61° Northeast  Level FlightAware Approximate
Thu 01:39:00 PM 39.5119 163.3929 62° Northeast  Level FlightAware Approximate
Thu 01:40:00 PM 39.5770 163.5514 62° Northeast  Level FlightAware Approximate
Thu 01:41:00 PM 39.6419 163.7103 62° Northeast  Level FlightAware Approximate
Thu 01:42:00 PM 39.7066 163.8694 62° Northeast  Level FlightAware Approximate
Thu 01:43:00 PM 39.7711 164.0288 62° Northeast  Level FlightAware Approximate
Thu 01:44:00 PM 39.8353 164.1886 62° Northeast  Level FlightAware Approximate
Thu 01:45:00 PM 39.8993 164.3486 62° Northeast  Level FlightAware Approximate
Thu 01:46:00 PM 39.9632 164.5089 63° Northeast  Level FlightAware Approximate
Thu 01:47:00 PM 40.0267 164.6695 63° Northeast  Level FlightAware Approximate
Thu 01:48:00 PM 40.0901 164.8304 63° Northeast  Level FlightAware Approximate
Thu 01:49:00 PM 40.1533 164.9916 62° Northeast  Level FlightAware Approximate
Thu 01:50:00 PM 40.2176 165.1522 62° Northeast  Level FlightAware Approximate
Thu 01:51:00 PM 40.2817 165.3131 62° Northeast  Level FlightAware Approximate
Thu 01:52:00 PM 40.3455 165.4744 63° Northeast  Level FlightAware Approximate
Thu 01:53:00 PM 40.4091 165.6359 63° Northeast  Level FlightAware Approximate
Thu 01:54:00 PM 40.4725 165.7977 63° Northeast  Level FlightAware Approximate
Thu 01:55:00 PM 40.5356 165.9598 63° Northeast  Level FlightAware Approximate
Thu 01:56:00 PM 40.5985 166.1223 63° Northeast  Level FlightAware Approximate
Thu 01:57:00 PM 40.6612 166.2850 63° Northeast  Level FlightAware Approximate
Thu 01:58:00 PM 40.7237 166.4481 63° Northeast  Level FlightAware Approximate
Thu 01:59:00 PM 40.7859 166.6114 63° Northeast  Level FlightAware Approximate
Thu 01:59:02 PM 40.9167 166.9167 64° Northeast 541 623 34,000  Level Oakland Oceanic (ODAPS)
Thu 02:00:00 PM 40.8479 166.7751 63° Northeast  Level FlightAware Approximate
Thu 02:01:00 PM 40.9097 166.9391 63° Northeast  Level FlightAware Approximate
Thu 02:01:56 PM 41.0667 167.3500 64° Northeast 542 624 34,000  Level Oakland Oceanic (ODAPS)
Thu 02:02:00 PM 40.9713 167.1033 64° Northeast  Level FlightAware Approximate
Thu 02:03:00 PM 41.0326 167.2679 64° Northeast  Level FlightAware Approximate
Thu 02:04:00 PM 41.0936 167.4328 64° Northeast  Level FlightAware Approximate
Thu 02:05:00 PM 41.3084 167.9931 65° Northeast 541 623 34,000  Level FlightAware Transoceanic
Thu 02:06:00 PM 41.3727 168.1738 65° Northeast 541 623 34,000  Level FlightAware Transoceanic
Thu 02:07:00 PM 41.4367 168.3548 65° Northeast 541 623 34,000  Level FlightAware Transoceanic
Thu 02:08:00 PM 41.5098 168.5771 65° Northeast 542 624 34,000  Level FlightAware Transoceanic
Thu 02:09:00 PM 41.5720 168.7538 65° Northeast 542 624 34,000  Level FlightAware Transoceanic
Thu 02:10:00 PM 41.6340 168.9308 65° Northeast 542 624 34,000  Level FlightAware Transoceanic
Thu 02:11:00 PM 41.6957 169.1082 65° Northeast 542 624 34,000  Level FlightAware Transoceanic
Thu 02:12:00 PM 41.7571 169.2859 65° Northeast 542 624 34,000  Level FlightAware Transoceanic
Thu 02:13:00 PM 41.8182 169.4639 65° Northeast 542 624 34,000  Level FlightAware Transoceanic
Thu 02:14:00 PM 41.8791 169.6422 65° Northeast 542 624 34,000  Level FlightAware Transoceanic
Thu 02:15:00 PM 41.9397 169.8210 66° East 542 624 34,000  Level FlightAware Transoceanic
Thu 02:16:00 PM 42.0000 170.0000 64° Northeast 542 624 34,000  Level FlightAware Transoceanic
Thu 02:16:02 PM 42.0000 170.0000 64° Northeast 533 613 34,000  Level Oakland Oceanic (ODAPS)
Thu 02:17:00 PM 42.0657 170.1828 64° Northeast 542 624 34,000  Level FlightAware Transoceanic
Thu 02:18:00 PM 42.1310 170.3660 64° Northeast 542 624 34,000  Level FlightAware Transoceanic
Thu 02:19:00 PM 42.1961 170.5496 65° Northeast 542 624 34,000  Level FlightAware Transoceanic
Thu 02:20:00 PM 42.2608 170.7335 65° Northeast 542 624 34,000  Level FlightAware Transoceanic
Thu 02:21:00 PM 42.3253 170.9178 65° Northeast 542 624 34,000  Level FlightAware Transoceanic
Thu 02:22:00 PM 42.3822 171.0816 65° Northeast 533 613 34,000  Level FlightAware Transoceanic
Thu 02:23:00 PM 42.4450 171.2632 65° Northeast 533 613 34,000  Level FlightAware Transoceanic
Thu 02:24:00 PM 42.5074 171.4451 65° Northeast 533 613 34,000  Level FlightAware Transoceanic
Thu 02:25:00 PM 42.5695 171.6273 65° Northeast 533 613 34,000  Level FlightAware Transoceanic
Thu 02:25:41 PM 42.6333 171.8000 65° Northeast 533 613 34,000  Level Oakland Oceanic (ODAPS)
Thu 02:26:00 PM 42.6314 171.8100 65° Northeast 533 613 34,000  Level FlightAware Transoceanic
Thu 02:27:00 PM 42.6929 171.9929 65° Northeast 533 613 34,000  Level FlightAware Transoceanic
Thu 02:28:00 PM 42.7542 172.1763 66° East 533 613 34,000  Level FlightAware Transoceanic
Thu 02:29:00 PM 42.8152 172.3600 66° East 533 613 34,000  Level FlightAware Transoceanic
Thu 02:30:00 PM 42.8759 172.5441 66° East 533 613 34,000  Level FlightAware Transoceanic
Thu 02:31:00 PM 42.9899 172.8795 66° East 533 613 34,000  Level FlightAware Transoceanic
Thu 02:32:00 PM 43.0484 173.0606 66° East 533 613 34,000  Level FlightAware Transoceanic
Thu 02:33:00 PM 43.1065 173.2421 66° East 533 613 34,000  Level FlightAware Transoceanic
Thu 02:34:00 PM 43.1644 173.4239 66° East 533 613 34,000  Level FlightAware Transoceanic
Thu 02:35:00 PM 43.2220 173.6060 67° East 533 613 34,000  Level FlightAware Transoceanic
Thu 02:36:00 PM 43.2793 173.7885 67° East 533 613 34,000  Level FlightAware Transoceanic
Thu 02:37:00 PM 43.3362 173.9714 67° East 533 613 34,000  Level FlightAware Transoceanic
Thu 02:38:00 PM 43.3929 174.1546 67° East 533 613 34,000  Level FlightAware Transoceanic
Thu 02:39:00 PM 43.4494 174.3381 67° East 533 613 34,000  Level FlightAware Transoceanic
Thu 02:40:00 PM 43.5055 174.5220 67° East 533 613 34,000  Level FlightAware Transoceanic
Thu 02:41:00 PM 43.5613 174.7062 67° East 533 613 34,000  Level FlightAware Transoceanic
Thu 02:42:00 PM 43.6168 174.8907 68° East 533 613 34,000  Level FlightAware Transoceanic
Thu 02:43:00 PM 43.6721 175.0756 68° East 533 613 34,000  Level FlightAware Transoceanic
Thu 02:44:00 PM 43.7270 175.2609 68° East 533 613 34,000  Level FlightAware Transoceanic
Thu 02:45:00 PM 43.7816 175.4464 68° East 533 613 34,000  Level FlightAware Transoceanic
Thu 02:46:00 PM 43.8360 175.6324 68° East 533 613 34,000  Level FlightAware Transoceanic
Thu 02:47:00 PM 43.8900 175.8186 68° East 533 613 34,000  Level FlightAware Transoceanic
Thu 02:48:00 PM 43.9437 176.0052 68° East 533 613 34,000  Level FlightAware Transoceanic
Thu 02:49:00 PM 43.9971 176.1921 68° East 533 613 34,000  Level FlightAware Transoceanic
Thu 02:50:00 PM 44.0503 176.3794 69° East 533 613 34,000  Level FlightAware Transoceanic
Thu 02:51:00 PM 44.1031 176.5670 69° East 533 613 34,000  Level FlightAware Transoceanic
Thu 02:52:00 PM 44.1556 176.7549 69° East 533 613 34,000  Level FlightAware Transoceanic
Thu 02:52:23 PM 44.1500 176.7167 69° East 527 606 34,000  Level Oakland Oceanic (ODAPS)
Thu 02:53:00 PM 44.2078 176.9431 69° East 533 613 34,000  Level FlightAware Transoceanic
Thu 02:54:00 PM 44.2597 177.1317 69° East 533 613 34,000  Level FlightAware Transoceanic
Thu 02:55:00 PM 44.3112 177.3207 69° East 533 613 34,000  Level FlightAware Transoceanic
Thu 02:56:00 PM 44.3625 177.5099 69° East 533 613 34,000  Level FlightAware Transoceanic
Thu 02:57:00 PM 44.4134 177.6995 69° East 533 613 34,000  Level FlightAware Transoceanic
Thu 02:58:00 PM 44.4607 177.8645 70° East 527 606 34,000  Level FlightAware Transoceanic
Thu 02:59:00 PM 44.5114 178.0570 70° East 527 606 34,000  Level FlightAware Transoceanic
Thu 03:00:00 PM 44.5617 178.2498 70° East 527 606 34,000  Level FlightAware Transoceanic
Thu 03:01:00 PM 44.6117 178.4429 70° East 527 606 34,000  Level FlightAware Transoceanic
Thu 03:02:00 PM 44.6614 178.6364 70° East 527 606 34,000  Level FlightAware Transoceanic
Thu 03:03:00 PM 44.7108 178.8302 70° East 527 606 34,000  Level FlightAware Transoceanic
Thu 03:04:00 PM 44.7598 179.0244 70° East 527 606 34,000  Level FlightAware Transoceanic
Thu 03:05:00 PM 44.8085 179.2189 71° East 527 606 34,000  Level FlightAware Transoceanic
Thu 03:06:00 PM 44.8569 179.4137 71° East 527 606 34,000  Level FlightAware Transoceanic
Thu 03:07:00 PM 44.9049 179.6088 71° East 527 606 34,000  Level FlightAware Transoceanic
Thu 03:08:00 PM 44.9526 179.8042 71° East 527 606 34,000  Level FlightAware Transoceanic
Thu 03:09:00 PM 45.0000 -180.0000 78° East 527 606 34,000  Level FlightAware Transoceanic
Thu 03:09:46 PM 45.0000 180.0000 78° East 506 582 34,000  Level Oakland Oceanic (ODAPS)
Thu 03:10:00 PM 45.0274 -179.8115 78° East 527 606 34,000  Level FlightAware Transoceanic
Thu 03:11:00 PM 45.0544 -179.6228 79° East 527 606 34,000  Level FlightAware Transoceanic
Thu 03:12:00 PM 45.0812 -179.4339 79° East 527 606 34,000  Level FlightAware Transoceanic
Thu 03:13:00 PM 45.1076 -179.2448 79° East 527 606 34,000  Level FlightAware Transoceanic
Thu 03:14:00 PM 45.1337 -179.0556 79° East 527 606 34,000  Level FlightAware Transoceanic
Thu 03:15:00 PM 45.1595 -178.8661 79° East 527 606 34,000  Level FlightAware Transoceanic
Thu 03:16:00 PM 45.1657 -178.8207 79° East 506 582 34,000  Level FlightAware Transoceanic
Thu 03:17:00 PM 45.1921 -178.6234 79° East 506 582 34,000  Level FlightAware Transoceanic
Thu 03:18:00 PM 45.2182 -178.4261 79° East 506 582 34,000  Level FlightAware Transoceanic
Thu 03:19:00 PM 45.2439 -178.2285 80° East 506 582 34,000  Level FlightAware Transoceanic
Thu 03:19:03 PM 45.2500 -178.1833 80° East 508 585 34,000  Level Oakland Oceanic (ODAPS)
Thu 03:20:00 PM 45.2694 -178.0307 80° East 506 582 34,000  Level FlightAware Transoceanic
Thu 03:21:00 PM 45.2944 -177.8328 80° East 506 582 34,000  Level FlightAware Transoceanic
Thu 03:22:00 PM 45.3192 -177.6347 80° East 506 582 34,000  Level FlightAware Transoceanic
Thu 03:23:00 PM 45.3435 -177.4364 80° East 506 582 34,000  Level FlightAware Transoceanic
Thu 03:24:00 PM 45.3676 -177.2380 80° East 506 582 34,000  Level FlightAware Transoceanic
Thu 03:25:00 PM 45.3960 -177.0006 80° East 508 585 34,000  Level FlightAware Transoceanic
Thu 03:26:00 PM 45.4192 -176.8029 81° East 508 585 34,000  Level FlightAware Transoceanic
Thu 03:27:00 PM 45.4420 -176.6051 81° East 508 585 34,000  Level FlightAware Transoceanic
Thu 03:28:00 PM 45.4645 -176.4070 81° East 508 585 34,000  Level FlightAware Transoceanic
Thu 03:29:00 PM 45.4866 -176.2089 81° East 508 585 34,000  Level FlightAware Transoceanic
Thu 03:30:00 PM 45.5084 -176.0105 81° East 508 585 34,000  Level FlightAware Transoceanic
Thu 03:31:00 PM 45.5298 -175.8120 81° East 508 585 34,000  Level FlightAware Transoceanic
Thu 03:32:00 PM 45.5509 -175.6134 81° East 508 585 34,000  Level FlightAware Transoceanic
Thu 03:33:00 PM 45.5717 -175.4146 82° East 508 585 34,000  Level FlightAware Transoceanic
Thu 03:34:00 PM 45.5920 -175.2157 82° East 508 585 34,000  Level FlightAware Transoceanic
Thu 03:35:00 PM 45.6121 -175.0166 82° East 508 585 34,000  Level FlightAware Transoceanic
Thu 03:36:00 PM 45.6318 -174.8174 82° East 508 585 34,000  Level FlightAware Transoceanic
Thu 03:37:00 PM 45.6512 -174.6181 82° East 508 585 34,000  Level FlightAware Transoceanic
Thu 03:38:00 PM 45.6702 -174.4186 82° East 508 585 34,000  Level FlightAware Transoceanic
Thu 03:39:00 PM 45.6889 -174.2189 82° East 508 585 34,000  Level FlightAware Transoceanic
Thu 03:40:00 PM 45.7072 -174.0192 83° East 508 585 34,000  Level FlightAware Transoceanic
Thu 03:41:00 PM 45.7252 -173.8193 83° East 508 585 34,000  Level FlightAware Transoceanic
Thu 03:42:00 PM 45.7428 -173.6193 83° East 508 585 34,000  Level FlightAware Transoceanic
Thu 03:43:00 PM 45.7601 -173.4191 83° East 508 585 34,000  Level FlightAware Transoceanic
Thu 03:44:00 PM 45.7770 -173.2189 83° East 508 585 34,000  Level FlightAware Transoceanic
Thu 03:45:00 PM 45.7936 -173.0185 83° East 508 585 34,000  Level FlightAware Transoceanic
Thu 03:45:43 PM 45.8167 -172.8167 84° East 500 575 34,000  Level Oakland Oceanic (ODAPS)
Thu 03:46:00 PM 45.8098 -172.8180 83° East 508 585 34,000  Level FlightAware Transoceanic
Thu 03:47:00 PM 45.8257 -172.6174 84° East 508 585 34,000  Level FlightAware Transoceanic
Thu 03:48:00 PM 45.8412 -172.4167 84° East 508 585 34,000  Level FlightAware Transoceanic
Thu 03:49:00 PM 45.8564 -172.2158 84° East 508 585 34,000  Level FlightAware Transoceanic
Thu 03:50:00 PM 45.8712 -172.0149 84° East 508 585 34,000  Level FlightAware Transoceanic
Thu 03:51:00 PM 45.8983 -171.6923 84° East 500 575 34,000  Level FlightAware Transoceanic
Thu 03:52:00 PM 45.9108 -171.5045 85° East 500 575 34,000  Level FlightAware Transoceanic
Thu 03:53:00 PM 45.9231 -171.3168 85° East 500 575 34,000  Level FlightAware Transoceanic
Thu 03:54:00 PM 45.9350 -171.1289 85° East 500 575 34,000  Level FlightAware Transoceanic
Thu 03:55:00 PM 45.9466 -170.9409 85° East 500 575 34,000  Level FlightAware Transoceanic
Thu 03:56:00 PM 45.9579 -170.7529 85° East 500 575 34,000  Level FlightAware Transoceanic
Thu 03:57:00 PM 45.9689 -170.5648 85° East 500 575 34,000  Level FlightAware Transoceanic
Thu 03:58:00 PM 45.9796 -170.3766 85° East 500 575 34,000  Level FlightAware Transoceanic
Thu 03:59:00 PM 45.9899 -170.1883 86° East 500 575 34,000  Level FlightAware Transoceanic
Thu 04:00:00 PM 46.0000 -170.0000 86° East 500 575 34,000  Level FlightAware Transoceanic
Thu 04:00:19 PM 46.0000 -170.0000 86° East 496 571 34,000  Level Oakland Oceanic (ODAPS)
Thu 04:01:00 PM 46.0084 -169.8044 87° East 500 575 34,000  Level FlightAware Transoceanic
Thu 04:02:00 PM 46.0164 -169.6088 87° East 500 575 34,000  Level FlightAware Transoceanic
Thu 04:03:00 PM 46.0242 -169.4131 87° East 500 575 34,000  Level FlightAware Transoceanic
Thu 04:04:00 PM 46.0315 -169.2173 87° East 500 575 34,000  Level FlightAware Transoceanic
Thu 04:05:00 PM 46.0386 -169.0215 87° East 500 575 34,000  Level FlightAware Transoceanic
Thu 04:06:00 PM 46.0453 -168.8256 87° East 496 571 34,000  Level FlightAware Transoceanic
Thu 04:07:00 PM 46.0517 -168.6297 87° East 496 571 34,000  Level FlightAware Transoceanic
Thu 04:08:00 PM 46.0577 -168.4338 88° East 496 571 34,000  Level FlightAware Transoceanic
Thu 04:09:00 PM 46.0634 -168.2378 88° East 496 571 34,000  Level FlightAware Transoceanic
Thu 04:10:00 PM 46.0688 -168.0417 88° East 496 571 34,000  Level FlightAware Transoceanic
Thu 04:11:00 PM 46.0738 -167.8457 88° East 496 571 34,000  Level FlightAware Transoceanic
Thu 04:12:00 PM 46.0785 -167.6496 88° East 496 571 34,000  Level FlightAware Transoceanic
Thu 04:12:23 PM 46.0833 -167.6833 88° East 495 570 34,000  Level Oakland Oceanic (ODAPS)
Thu 04:13:00 PM 46.0829 -167.4534 88° East 496 571 34,000  Level FlightAware Transoceanic
Thu 04:14:00 PM 46.0869 -167.2573 88° East 496 571 34,000  Level FlightAware Transoceanic
Thu 04:15:00 PM 46.0906 -167.0611 89° East 496 571 34,000  Level FlightAware Transoceanic
Thu 04:16:00 PM 46.0940 -166.8649 89° East 496 571 34,000  Level FlightAware Transoceanic
Thu 04:17:00 PM 46.0970 -166.6686 89° East 496 571 34,000  Level FlightAware Transoceanic
Thu 04:18:00 PM 46.1041 -166.5009 89° East 495 570 34,000  Level FlightAware Transoceanic
Thu 04:19:00 PM 46.1063 -166.3037 89° East 495 570 34,000  Level FlightAware Transoceanic
Thu 04:20:00 PM 46.1082 -166.1065 89° East 495 570 34,000  Level FlightAware Transoceanic
Thu 04:21:00 PM 46.1098 -165.9093 89° East 495 570 34,000  Level FlightAware Transoceanic
Thu 04:22:00 PM 46.1111 -165.7121 90° East 495 570 34,000  Level FlightAware Transoceanic
Thu 04:23:00 PM 46.1120 -165.5150 90° East 495 570 34,000  Level FlightAware Transoceanic
Thu 04:24:00 PM 46.1126 -165.3177 90° East 495 570 34,000  Level FlightAware Transoceanic
Thu 04:25:00 PM 46.1128 -165.1205 90° East 495 570 34,000  Level FlightAware Transoceanic
Thu 04:26:00 PM 46.1127 -164.9233 90° East 495 570 34,000  Level FlightAware Transoceanic
Thu 04:27:00 PM 46.1123 -164.7261 90° East 495 570 34,000  Level FlightAware Transoceanic
Thu 04:28:00 PM 46.1115 -164.5289 90° East 495 570 34,000  Level FlightAware Transoceanic
Thu 04:29:00 PM 46.1104 -164.3317 91° East 495 570 34,000  Level FlightAware Transoceanic
Thu 04:30:00 PM 46.1089 -164.1345 91° East 495 570 34,000  Level FlightAware Transoceanic
Thu 04:31:00 PM 46.1071 -163.9373 91° East 495 570 34,000  Level FlightAware Transoceanic
Thu 04:32:00 PM 46.1049 -163.7402 91° East 495 570 34,000  Level FlightAware Transoceanic
Thu 04:33:00 PM 46.1025 -163.5430 91° East 495 570 34,000  Level FlightAware Transoceanic
Thu 04:34:00 PM 46.0997 -163.3459 91° East 495 570 34,000  Level FlightAware Transoceanic
Thu 04:35:00 PM 46.0965 -163.1488 91° East 495 570 34,000  Level FlightAware Transoceanic
Thu 04:36:00 PM 46.0930 -162.9517 92° East 495 570 34,000  Level FlightAware Transoceanic
Thu 04:37:00 PM 46.0892 -162.7547 92° East 495 570 34,000  Level FlightAware Transoceanic
Thu 04:38:00 PM 46.0850 -162.5576 92° East 495 570 34,000  Level FlightAware Transoceanic
Thu 04:39:00 PM 46.0805 -162.3607 92° East 495 570 34,000 923 Level FlightAware Transoceanic
Thu 04:39:05 PM 46.0833 -162.6000 92° East 483 556 35,000  Climbing Oakland Oceanic (ODAPS)
Thu 04:40:00 PM 46.0756 -162.1637 92° East 495 570 34,000 -522 Descending FlightAware Transoceanic
Thu 04:41:00 PM 46.0704 -161.9668 92° East 495 570 34,000  Level FlightAware Transoceanic
Thu 04:42:00 PM 46.0649 -161.7699 92° East 495 570 34,000  Level FlightAware Transoceanic
Thu 04:43:00 PM 46.0591 -161.5730 93° East 495 570 34,000  Level FlightAware Transoceanic
Thu 04:44:00 PM 46.0529 -161.3762 93° East 495 570 34,000 500 Level FlightAware Transoceanic
Thu 04:45:00 PM 46.0522 -161.3990 93° East 483 556 35,000 500 Climbing FlightAware Transoceanic
Thu 04:46:00 PM 46.0458 -161.1990 93° East 483 556 35,000  Level FlightAware Transoceanic
Thu 04:47:00 PM 46.0390 -160.9991 93° East 483 556 35,000  Level FlightAware Transoceanic
Thu 04:48:00 PM 46.0319 -160.7991 93° East 483 556 35,000  Level FlightAware Transoceanic
Thu 04:49:00 PM 46.0245 -160.5993 93° East 483 556 35,000  Level FlightAware Transoceanic
Thu 04:50:00 PM 46.0167 -160.3994 93° East 483 556 35,000  Level FlightAware Transoceanic
Thu 04:51:00 PM 46.0085 -160.1997 93° East 483 556 35,000  Level FlightAware Transoceanic
Thu 04:52:00 PM 46.0000 -160.0000 95° East 483 556 35,000  Level FlightAware Transoceanic
Thu 04:52:38 PM 46.0000 -160.0000 95° East 495 570 35,000  Level Oakland Oceanic (ODAPS)
Thu 04:53:00 PM 45.9889 -159.8009 95° East 483 556 35,000  Level FlightAware Transoceanic
Thu 04:54:00 PM 45.9774 -159.6020 95° East 483 556 35,000  Level FlightAware Transoceanic
Thu 04:55:00 PM 45.9656 -159.4031 95° East 483 556 35,000  Level FlightAware Transoceanic
Thu 04:56:00 PM 45.9534 -159.2043 95° East 483 556 35,000  Level FlightAware Transoceanic
Thu 04:57:00 PM 45.9409 -159.0056 95° East 483 556 35,000  Level FlightAware Transoceanic
Thu 04:58:00 PM 45.9296 -158.8299 95° East 495 570 35,000  Level FlightAware Transoceanic
Thu 04:59:00 PM 45.9167 -158.6352 96° East 495 570 35,000  Level FlightAware Transoceanic
Thu 05:00:00 PM 45.9034 -158.4406 96° East 495 570 35,000  Level FlightAware Transoceanic
Thu 05:01:00 PM 45.8899 -158.2460 96° East 495 570 35,000  Level FlightAware Transoceanic
Thu 05:02:00 PM 45.8760 -158.0516 96° East 495 570 35,000  Level FlightAware Transoceanic
Thu 05:03:00 PM 45.8618 -157.8573 96° East 495 570 35,000  Level FlightAware Transoceanic
Thu 05:04:00 PM 45.8472 -157.6630 96° East 495 570 35,000  Level FlightAware Transoceanic
Thu 05:05:00 PM 45.8324 -157.4689 96° East 495 570 35,000 571 Level FlightAware Transoceanic
Thu 05:05:45 PM 45.8333 -157.5000 96° East 496 571 36,000  Climbing Oakland Oceanic (ODAPS)
Thu 05:06:00 PM 45.8172 -157.2749 96° East 495 570 35,000 -800 Descending FlightAware Transoceanic
Thu 05:07:00 PM 45.8016 -157.0809 97° East 495 570 35,000  Level FlightAware Transoceanic
Thu 05:08:00 PM 45.7858 -156.8871 97° East 495 570 35,000  Level FlightAware Transoceanic
Thu 05:09:00 PM 45.7696 -156.6934 97° East 495 570 35,000  Level FlightAware Transoceanic
Thu 05:10:00 PM 45.7531 -156.4998 97° East 495 570 35,000  Level FlightAware Transoceanic
Thu 05:11:00 PM 45.7362 -156.3064 97° East 495 570 35,000 500 Level FlightAware Transoceanic
Thu 05:12:00 PM 45.7201 -156.1385 97° East 496 571 36,000 500 Climbing FlightAware Transoceanic
Thu 05:13:00 PM 45.7027 -155.9444 97° East 496 571 36,000  Level FlightAware Transoceanic
Thu 05:14:00 PM 45.6848 -155.7505 98° East 496 571 36,000  Level FlightAware Transoceanic
Thu 05:15:00 PM 45.6667 -155.5567 98° East 496 571 36,000  Level FlightAware Transoceanic
Thu 05:16:00 PM 45.6482 -155.3631 98° East 496 571 36,000  Level FlightAware Transoceanic
Thu 05:17:00 PM 45.6294 -155.1695 98° East 496 571 36,000  Level FlightAware Transoceanic
Thu 05:18:00 PM 45.6103 -154.9761 98° East 496 571 36,000  Level FlightAware Transoceanic
Thu 05:19:00 PM 45.5909 -154.7828 98° East 496 571 36,000  Level FlightAware Transoceanic
Thu 05:20:00 PM 45.5711 -154.5897 98° East 496 571 36,000  Level FlightAware Transoceanic
Thu 05:21:00 PM 45.5510 -154.3967 99° East 496 571 36,000  Level FlightAware Transoceanic
Thu 05:22:00 PM 45.5305 -154.2038 99° East 496 571 36,000  Level FlightAware Transoceanic
Thu 05:23:00 PM 45.5098 -154.0111 99° East 496 571 36,000  Level FlightAware Transoceanic
Thu 05:24:00 PM 45.4887 -153.8185 99° East 496 571 36,000  Level FlightAware Transoceanic
Thu 05:25:00 PM 45.4673 -153.6261 99° East 496 571 36,000  Level FlightAware Transoceanic
Thu 05:26:00 PM 45.4456 -153.4338 99° East 496 571 36,000  Level FlightAware Transoceanic
Thu 05:27:00 PM 45.4235 -153.2417 99° East 496 571 36,000  Level FlightAware Transoceanic
Thu 05:28:00 PM 45.4012 -153.0497 99° East 496 571 36,000  Level FlightAware Transoceanic
Thu 05:29:00 PM 45.3785 -152.8578 100° East 496 571 36,000  Level FlightAware Transoceanic
Thu 05:30:00 PM 45.3555 -152.6662 100° East 496 571 36,000  Level FlightAware Transoceanic
Thu 05:31:00 PM 45.3322 -152.4747 100° East 496 571 36,000  Level FlightAware Transoceanic
Thu 05:32:00 PM 45.3085 -152.2833 100° East 496 571 36,000  Level FlightAware Transoceanic
Thu 05:32:25 PM 45.3333 -152.5167 100° East 482 555 36,000  Level Oakland Oceanic (ODAPS)
Thu 05:33:00 PM 45.2845 -152.0921 100° East 496 571 36,000  Level FlightAware Transoceanic
Thu 05:34:00 PM 45.2603 -151.9010 100° East 496 571 36,000  Level FlightAware Transoceanic
Thu 05:35:00 PM 45.2357 -151.7102 100° East 496 571 36,000  Level FlightAware Transoceanic
Thu 05:36:00 PM 45.2107 -151.5195 101° East 496 571 36,000  Level FlightAware Transoceanic
Thu 05:37:00 PM 45.1855 -151.3289 101° East 496 571 36,000  Level FlightAware Transoceanic
Thu 05:38:00 PM 45.1973 -151.4345 101° East 482 555 36,000  Level FlightAware Transoceanic
Thu 05:39:00 PM 45.1736 -151.2547 101° East 482 555 36,000  Level FlightAware Transoceanic
Thu 05:40:00 PM 45.1496 -151.0750 101° East 482 555 36,000  Level FlightAware Transoceanic
Thu 05:41:00 PM 45.1254 -150.8954 101° East 482 555 36,000  Level FlightAware Transoceanic
Thu 05:42:00 PM 45.1009 -150.7160 101° East 482 555 36,000  Level FlightAware Transoceanic
Thu 05:43:00 PM 45.0761 -150.5368 101° East 482 555 36,000  Level FlightAware Transoceanic
Thu 05:44:00 PM 45.0510 -150.3577 101° East 482 555 36,000  Level FlightAware Transoceanic
Thu 05:45:00 PM 45.0256 -150.1788 101° East 482 555 36,000  Level FlightAware Transoceanic
Thu 05:46:00 PM 45.0000 -150.0000 94° East 482 555 36,000  Level FlightAware Transoceanic
Thu 05:46:18 PM 45.0000 -150.0000 94° East 499 574 36,000  Level Oakland Oceanic (ODAPS)
Thu 05:47:00 PM 44.9889 -149.8011 95° East 482 555 36,000  Level FlightAware Transoceanic
Thu 05:48:00 PM 44.9774 -149.6022 95° East 482 555 36,000  Level FlightAware Transoceanic
Thu 05:49:00 PM 44.9656 -149.4034 95° East 482 555 36,000  Level FlightAware Transoceanic
Thu 05:50:00 PM 44.9534 -149.2047 95° East 482 555 36,000  Level FlightAware Transoceanic
Thu 05:51:00 PM 44.9409 -149.0061 95° East 482 555 36,000  Level FlightAware Transoceanic
Thu 05:52:00 PM 44.9296 -148.8305 95° East 499 574 36,000  Level FlightAware Transoceanic
Thu 05:53:00 PM 44.9167 -148.6358 95° East 499 574 36,000  Level FlightAware Transoceanic
Thu 05:54:00 PM 44.9034 -148.4413 96° East 499 574 36,000  Level FlightAware Transoceanic
Thu 05:55:00 PM 44.8899 -148.2468 96° East 499 574 36,000  Level FlightAware Transoceanic
Thu 05:56:00 PM 44.8760 -148.0525 96° East 499 574 36,000  Level FlightAware Transoceanic
Thu 05:57:00 PM 44.8618 -147.8582 96° East 499 574 36,000  Level FlightAware Transoceanic
Thu 05:58:00 PM 44.8472 -147.6640 96° East 499 574 36,000  Level FlightAware Transoceanic
Thu 05:59:00 PM 44.8324 -147.4700 96° East 499 574 36,000  Level FlightAware Transoceanic
Thu 05:59:06 PM 44.8333 -147.5333 96° East 501 577 36,000  Level Oakland Oceanic (ODAPS)
Thu 06:00:00 PM 44.8172 -147.2760 96° East 499 574 36,000  Level FlightAware Transoceanic
Thu 06:01:00 PM 44.8016 -147.0821 97° East 499 574 36,000  Level FlightAware Transoceanic
Thu 06:02:00 PM 44.7858 -146.8884 97° East 499 574 36,000  Level FlightAware Transoceanic
Thu 06:03:00 PM 44.7696 -146.6947 97° East 499 574 36,000  Level FlightAware Transoceanic
Thu 06:04:00 PM 44.7531 -146.5012 97° East 499 574 36,000  Level FlightAware Transoceanic
Thu 06:05:00 PM 44.7376 -146.3613 97° East 501 577 36,000  Level FlightAware Transoceanic
Thu 06:06:00 PM 44.7205 -146.1663 97° East 501 577 36,000  Level FlightAware Transoceanic
Thu 06:07:00 PM 44.7030 -145.9715 97° East 501 577 36,000  Level FlightAware Transoceanic
Thu 06:08:00 PM 44.6852 -145.7767 97° East 501 577 36,000  Level FlightAware Transoceanic
Thu 06:09:00 PM 44.6671 -145.5821 98° East 501 577 36,000  Level FlightAware Transoceanic
Thu 06:10:00 PM 44.6487 -145.3876 98° East 501 577 36,000  Level FlightAware Transoceanic
Thu 06:11:00 PM 44.6299 -145.1933 98° East 501 577 36,000  Level FlightAware Transoceanic
Thu 06:12:00 PM 44.6108 -144.9991 98° East 501 577 36,000  Level FlightAware Transoceanic
Thu 06:13:00 PM 44.5914 -144.8049 98° East 501 577 36,000  Level FlightAware Transoceanic
Thu 06:14:00 PM 44.5716 -144.6110 98° East 501 577 36,000  Level FlightAware Transoceanic
Thu 06:15:00 PM 44.5515 -144.4171 98° East 501 577 36,000  Level FlightAware Transoceanic
Thu 06:16:00 PM 44.5311 -144.2234 98° East 501 577 36,000  Level FlightAware Transoceanic
Thu 06:17:00 PM 44.5103 -144.0299 99° East 501 577 36,000  Level FlightAware Transoceanic
Thu 06:18:00 PM 44.4893 -143.8365 99° East 501 577 36,000  Level FlightAware Transoceanic
Thu 06:19:00 PM 44.4679 -143.6432 99° East 501 577 36,000  Level FlightAware Transoceanic
Thu 06:20:00 PM 44.4461 -143.4500 99° East 501 577 36,000  Level FlightAware Transoceanic
Thu 06:21:00 PM 44.4241 -143.2570 99° East 501 577 36,000  Level FlightAware Transoceanic
Thu 06:22:00 PM 44.4017 -143.0642 99° East 501 577 36,000  Level FlightAware Transoceanic
Thu 06:23:00 PM 44.3790 -142.8715 99° East 501 577 36,000  Level FlightAware Transoceanic
Thu 06:24:00 PM 44.3560 -142.6789 100° East 501 577 36,000  Level FlightAware Transoceanic
Thu 06:25:00 PM 44.3326 -142.4865 100° East 501 577 36,000  Level FlightAware Transoceanic
Thu 06:25:46 PM 44.3333 -142.4167 100° East 506 582 36,000  Level Oakland Oceanic (ODAPS)
Thu 06:26:00 PM 44.3090 -142.2943 100° East 501 577 36,000  Level FlightAware Transoceanic
Thu 06:27:00 PM 44.2850 -142.1022 100° East 501 577 36,000  Level FlightAware Transoceanic
Thu 06:28:00 PM 44.2607 -141.9102 100° East 501 577 36,000  Level FlightAware Transoceanic
Thu 06:29:00 PM 44.2360 -141.7185 100° East 501 577 36,000  Level FlightAware Transoceanic
Thu 06:30:00 PM 44.2111 -141.5269 100° East 501 577 36,000  Level FlightAware Transoceanic
Thu 06:31:00 PM 44.1858 -141.3354 100° East 501 577 36,000  Level FlightAware Transoceanic
Thu 06:32:00 PM 44.1730 -141.2049 101° East 506 582 36,000  Level FlightAware Transoceanic
Thu 06:33:00 PM 44.1451 -141.0036 101° East 506 582 36,000  Level FlightAware Transoceanic
Thu 06:34:00 PM 44.1168 -140.8025 101° East 506 582 36,000  Level FlightAware Transoceanic
Thu 06:35:00 PM 44.0881 -140.6016 101° East 506 582 36,000  Level FlightAware Transoceanic
Thu 06:36:00 PM 44.0591 -140.4008 101° East 506 582 36,000  Level FlightAware Transoceanic
Thu 06:37:00 PM 44.0297 -140.2003 102° East 506 582 36,000  Level FlightAware Transoceanic
Thu 06:38:00 PM 44.0000 -140.0000 115° Southeast 506 582 36,000  Level FlightAware Transoceanic
Thu 06:38:31 PM 44.0000 -140.0000 115° Southeast 489 563 36,000  Level Oakland Oceanic (ODAPS)
Thu 06:39:00 PM 43.9426 -139.8301 115° Southeast 506 582 36,000  Level FlightAware Transoceanic
Thu 06:40:00 PM 43.8849 -139.6604 115° Southeast 506 582 36,000  Level FlightAware Transoceanic
Thu 06:41:00 PM 43.8270 -139.4912 115° Southeast 506 582 36,000  Level FlightAware Transoceanic
Thu 06:42:00 PM 43.7688 -139.3222 116° Southeast 506 582 36,000  Level FlightAware Transoceanic
Thu 06:43:00 PM 43.7103 -139.1536 116° Southeast 506 582 36,000  Level FlightAware Transoceanic
Thu 06:44:00 PM 43.6517 -138.9853 116° Southeast 489 563 36,000  Level FlightAware Transoceanic
Thu 06:45:00 PM 43.5927 -138.8173 116° Southeast 489 563 36,000  Level FlightAware Transoceanic
Thu 06:46:00 PM 43.5336 -138.6497 116° Southeast 489 563 36,000  Level FlightAware Transoceanic
Thu 06:47:00 PM 43.4742 -138.4824 116° Southeast 489 563 36,000  Level FlightAware Transoceanic
Thu 06:48:00 PM 43.4145 -138.3154 116° Southeast 489 563 36,000  Level FlightAware Transoceanic
Thu 06:49:00 PM 43.3546 -138.1487 116° Southeast 489 563 36,000  Level FlightAware Transoceanic
Thu 06:50:00 PM 43.2944 -137.9824 116° Southeast 489 563 36,000  Level FlightAware Transoceanic
Thu 06:51:00 PM 43.2341 -137.8164 117° Southeast 489 563 36,000  Level FlightAware Transoceanic
Thu 06:52:00 PM 43.1735 -137.6508 117° Southeast 489 563 36,000  Level FlightAware Transoceanic
Thu 06:52:26 PM 43.1833 -137.7000 117° Southeast 485 558 36,000  Level Oakland Oceanic (ODAPS)
Thu 06:53:00 PM 43.1126 -137.4854 117° Southeast 489 563 36,000  Level FlightAware Transoceanic
Thu 06:54:00 PM 43.0515 -137.3204 117° Southeast 489 563 36,000  Level FlightAware Transoceanic
Thu 06:55:00 PM 42.9902 -137.1557 117° Southeast 489 563 36,000  Level FlightAware Transoceanic
Thu 06:56:00 PM 42.9286 -136.9914 117° Southeast 489 563 36,000  Level FlightAware Transoceanic
Thu 06:57:00 PM 42.8668 -136.8274 117° Southeast 489 563 36,000  Level FlightAware Transoceanic
Thu 06:58:00 PM 42.8195 -136.7223 117° Southeast 485 558 36,000  Level FlightAware Transoceanic
Thu 06:59:00 PM 42.7580 -136.5605 117° Southeast 485 558 36,000  Level FlightAware Transoceanic
Thu 07:00:00 PM 42.6964 -136.3990 118° Southeast 485 558 36,000  Level FlightAware Transoceanic
Thu 07:01:00 PM 42.6345 -136.2378 118° Southeast 485 558 36,000  Level FlightAware Transoceanic
Thu 07:02:00 PM 42.5723 -136.0770 118° Southeast 485 558 36,000  Level FlightAware Transoceanic
Thu 07:03:00 PM 42.5100 -135.9164 118° Southeast 485 558 36,000  Level FlightAware Transoceanic
Thu 07:04:00 PM 42.4474 -135.7562 118° Southeast 485 558 36,000  Level FlightAware Transoceanic
Thu 07:05:00 PM 42.3846 -135.5963 118° Southeast 485 558 36,000  Level FlightAware Transoceanic
Thu 07:06:00 PM 42.3216 -135.4367 118° Southeast 485 558 36,000  Level FlightAware Transoceanic
Thu 07:07:00 PM 42.2584 -135.2775 118° Southeast 485 558 36,000  Level FlightAware Transoceanic
Thu 07:08:00 PM 42.1949 -135.1185 118° Southeast 485 558 36,000  Level FlightAware Transoceanic
Thu 07:09:00 PM 42.1312 -134.9599 118° Southeast 485 558 36,000  Level FlightAware Transoceanic
Thu 07:10:00 PM 42.0673 -134.8016 119° Southeast 485 558 36,000  Level FlightAware Transoceanic
Thu 07:11:00 PM 42.0032 -134.6436 119° Southeast 485 558 36,000  Level FlightAware Transoceanic
Thu 07:12:00 PM 41.9389 -134.4860 119° Southeast 485 558 36,000  Level FlightAware Transoceanic
Thu 07:13:00 PM 41.8743 -134.3286 119° Southeast 485 558 36,000  Level FlightAware Transoceanic
Thu 07:14:00 PM 41.8096 -134.1716 119° Southeast 485 558 36,000  Level FlightAware Transoceanic
Thu 07:15:00 PM 41.7446 -134.0149 119° Southeast 485 558 36,000  Level FlightAware Transoceanic
Thu 07:16:00 PM 41.6794 -133.8585 119° Southeast 485 558 36,000  Level FlightAware Transoceanic
Thu 07:17:00 PM 41.6140 -133.7025 119° Southeast 485 558 36,000  Level FlightAware Transoceanic
Thu 07:18:00 PM 41.5484 -133.5467 119° Southeast 485 558 36,000  Level FlightAware Transoceanic
Thu 07:19:00 PM 41.4826 -133.3913 120° Southeast 485 558 36,000  Level FlightAware Transoceanic
Thu 07:19:07 PM 41.5167 -133.4500 120° Southeast 489 563 36,000  Level Oakland Oceanic (ODAPS)
Thu 07:20:00 PM 41.4166 -133.2361 120° Southeast 485 558 36,000  Level FlightAware Transoceanic
Thu 07:21:00 PM 41.3503 -133.0813 120° Southeast 485 558 36,000  Level FlightAware Transoceanic
Thu 07:22:00 PM 41.2839 -132.9268 120° Southeast 485 558 36,000  Level FlightAware Transoceanic
Thu 07:23:00 PM 41.2173 -132.7727 120° Southeast 485 558 36,000  Level FlightAware Transoceanic
Thu 07:24:00 PM 41.1504 -132.6188 120° Southeast 485 558 36,000  Level FlightAware Transoceanic
Thu 07:25:00 PM 41.1131 -132.5151 120° Southeast 489 563 36,000  Level FlightAware Transoceanic
Thu 07:26:00 PM 41.0451 -132.3604 120° Southeast 489 563 36,000  Level FlightAware Transoceanic
Thu 07:27:00 PM 40.9769 -132.2060 120° Southeast 489 563 36,000  Level FlightAware Transoceanic
Thu 07:28:00 PM 40.9085 -132.0519 120° Southeast 489 563 36,000  Level FlightAware Transoceanic
Thu 07:29:00 PM 40.8398 -131.8982 121° Southeast 489 563 36,000  Level FlightAware Transoceanic
Thu 07:30:00 PM 40.7710 -131.7448 121° Southeast 489 563 36,000  Level FlightAware Transoceanic
Thu 07:31:00 PM 40.7020 -131.5916 121° Southeast 489 563 36,000  Level FlightAware Transoceanic
Thu 07:32:00 PM 40.6328 -131.4389 121° Southeast 489 563 36,000  Level FlightAware Transoceanic
Thu 07:33:00 PM 40.5634 -131.2864 121° Southeast 489 563 36,000  Level FlightAware Transoceanic
Thu 07:34:00 PM 40.4937 -131.1342 121° Southeast 489 563 36,000  Level FlightAware Transoceanic
Thu 07:35:00 PM 40.4239 -130.9824 121° Southeast 489 563 36,000  Level FlightAware Transoceanic
Thu 07:36:00 PM 40.3539 -130.8309 121° Southeast 489 563 36,000  Level FlightAware Transoceanic
Thu 07:37:00 PM 40.2837 -130.6797 121° Southeast 489 563 36,000  Level FlightAware Transoceanic
Thu 07:38:00 PM 40.2132 -130.5288 121° Southeast 489 563 36,000  Level FlightAware Transoceanic
Thu 07:39:00 PM 40.1426 -130.3782 122° Southeast 489 563 36,000  Level FlightAware Transoceanic
Thu 07:40:00 PM 40.0718 -130.2279 122° Southeast 489 563 36,000  Level FlightAware Transoceanic
Thu 07:41:00 PM 40.0008 -130.0780 122° Southeast 489 563 36,000  Level FlightAware Transoceanic
Thu 07:42:00 PM 39.9296 -129.9283 122° Southeast 489 563 36,000  Level FlightAware Transoceanic
Thu 07:43:00 PM 39.8583 -129.7790 122° Southeast 489 563 36,000  Level FlightAware Transoceanic
Thu 07:44:00 PM 39.7867 -129.6300 122° Southeast 489 563 36,000  Level FlightAware Transoceanic
Thu 07:45:00 PM 39.7149 -129.4813 122° Southeast 489 563 36,000  Level FlightAware Transoceanic
Thu 07:45:47 PM 39.7000 -129.4500 122° Southeast 482 555 36,000  Level Oakland Oceanic (ODAPS)
Thu 07:46:00 PM 39.6430 -129.3329 122° Southeast 489 563 36,000  Level FlightAware Transoceanic
Thu 07:47:00 PM 39.5708 -129.1848 122° Southeast 489 563 36,000  Level FlightAware Transoceanic
Thu 07:48:00 PM 39.4985 -129.0370 122° Southeast 489 563 36,000  Level FlightAware Transoceanic
Thu 07:49:00 PM 39.4260 -128.8895 123° Southeast 489 563 36,000  Level FlightAware Transoceanic
Thu 07:50:00 PM 39.3533 -128.7423 123° Southeast 489 563 36,000  Level FlightAware Transoceanic
Thu 07:51:00 PM 39.2804 -128.5955 123° Southeast 489 563 36,000  Level FlightAware Transoceanic
Thu 07:52:00 PM 39.2435 -128.5212 123° Southeast 482 555 36,000  Level FlightAware Transoceanic
Thu 07:53:00 PM 39.1667 -128.3676 123° Southeast 482 555 36,000  Level FlightAware Transoceanic
Thu 07:54:00 PM 39.0897 -128.2143 123° Southeast 482 555 36,000  Level FlightAware Transoceanic
Thu 07:55:00 PM 39.0126 -128.0613 123° Southeast 482 555 36,000  Level FlightAware Transoceanic
Thu 07:56:00 PM 38.9352 -127.9087 123° Southeast 482 555 36,000  Level FlightAware Transoceanic
Thu 07:57:00 PM 38.8576 -127.7564 123° Southeast 482 555 36,000  Level FlightAware Transoceanic
Thu 07:58:00 PM 38.7798 -127.6045 123° Southeast 482 555 36,000  Level FlightAware Transoceanic
Thu 07:59:00 PM 38.7018 -127.4529 123° Southeast 482 555 36,000 -52 Level FlightAware Transoceanic
Thu 07:59:55 PM 38.6836 -127.4161 111° Southeast 471 542 35,900  Descending Oakland Center
Thu 08:00:00 PM 38.6236 -127.3016 124° Southeast 482 555 36,000 92 Climbing FlightAware Transoceanic
Thu 08:01:00 PM 38.5452 -127.1506 124° Southeast 482 555 36,000  Level FlightAware Transoceanic
Thu 08:02:00 PM 38.4667 -127.0000 111° Southeast 482 555 36,000  Level FlightAware Transoceanic
Thu 08:03:00 PM 38.4209 -126.8491 111° Southeast 482 555 36,000  Level FlightAware Transoceanic
Thu 08:04:00 PM 38.3749 -126.6985 111° Southeast 482 555 36,000  Level FlightAware Transoceanic
Thu 08:05:00 PM 38.3287 -126.5480 111° Southeast 482 555 36,000  Level FlightAware Transoceanic
Thu 08:06:00 PM 38.3190 -126.4890 111° Southeast 473 544 36,000  Level FlightAware ADS-B
Thu 08:06:42 PM 38.2940 -126.3930 108° East 473 544 36,000  Level FlightAware ADS-B
Thu 08:07:19 PM 38.2730 -126.3090 108° East 473 544 36,000  Level FlightAware ADS-B
Thu 08:08:07 PM 38.2450 -126.2010 108° East 473 544 36,000  Level FlightAware ADS-B
Thu 08:08:46 PM 38.2000 -126.0580 112° Southeast 470 541 36,000  Level FlightAware ADS-B
Thu 08:09:26 PM 38.1700 -125.9520 110° East 472 543 36,000  Level FlightAware ADS-B
Thu 08:10:08 PM 38.1390 -125.8420 110° East 472 543 36,000  Level FlightAware ADS-B
Thu 08:10:54 PM 38.1060 -125.7240 110° East 473 544 36,000  Level FlightAware ADS-B
Thu 08:11:34 PM 38.0760 -125.6170 110° East 472 543 36,000  Level FlightAware ADS-B
Thu 08:12:18 PM 38.0440 -125.5030 110° East 472 543 36,000  Level FlightAware ADS-B
Thu 08:12:58 PM 38.0150 -125.4000 110° East 474 545 36,000  Level FlightAware ADS-B
Thu 08:13:40 PM 37.9840 -125.2920 110° East 474 545 36,000  Level FlightAware ADS-B
Thu 08:14:22 PM 37.9520 -125.1800 110° East 475 547 36,000  Level FlightAware ADS-B
Thu 08:15:07 PM 37.9190 -125.0650 110° East 475 547 36,000  Level FlightAware ADS-B
Thu 08:15:46 PM 37.8890 -124.9610 110° East 475 547 36,000 -74 Level FlightAware ADS-B
Thu 08:16:28 PM 37.8570 -124.8510 110° East 477 549 35,900 -947 Descending FlightAware ADS-B
Thu 08:17:02 PM 37.8310 -124.7610 110° East 470 541 34,800 -1,923 Descending FlightAware ADS-B
Thu 08:17:46 PM 37.7990 -124.6520 110° East 461 531 33,400 -1,929 Descending FlightAware ADS-B
Thu 08:18:26 PM 37.7690 -124.5510 111° Southeast 451 519 32,100 -2,000 Descending FlightAware ADS-B
Thu 08:19:10 PM 37.7370 -124.4410 110° East 441 507 30,600 -1,909 Descending FlightAware ADS-B
Thu 08:19:54 PM 37.7060 -124.3390 111° Southeast 431 496 29,300 -1,786 Descending FlightAware ADS-B
Thu 08:20:34 PM 37.6790 -124.2450 110° East 421 484 28,100 -1,735 Descending FlightAware ADS-B
Thu 08:21:17 PM 37.6520 -124.1560 111° Southeast 413 475 26,900 -1,814 Descending FlightAware ADS-B
Thu 08:22:00 PM 37.6210 -124.0520 111° Southeast 404 465 25,500 -1,880 Descending FlightAware ADS-B
Thu 08:22:40 PM 37.5950 -123.9650 111° Southeast 398 458 24,300 -1,714 Descending FlightAware ADS-B
Thu 08:23:24 PM 37.5670 -123.8710 111° Southeast 391 450 23,100 -1,714 Descending FlightAware ADS-B
Thu 08:24:04 PM 37.5410 -123.7860 111° Southeast 383 441 21,900 -1,714 Descending FlightAware ADS-B
Thu 08:24:48 PM 37.5140 -123.6950 110° East 377 434 20,700 -1,643 Descending FlightAware ADS-B
Thu 08:25:28 PM 37.4890 -123.6150 111° Southeast 371 427 19,600 -1,658 Descending FlightAware ADS-B
Thu 08:26:04 PM 37.4670 -123.5420 111° Southeast 366 421 18,600 -1,703 Descending FlightAware ADS-B
Thu 08:26:42 PM 37.4440 -123.4660 111° Southeast 362 417 17,500 -1,650 Descending FlightAware ADS-B
Thu 08:27:24 PM 37.4190 -123.3860 111° Southeast 357 411 16,400 -1,605 Descending FlightAware ADS-B
Thu 08:28:08 PM 37.3930 -123.3010 111° Southeast 353 406 15,200 -1,605 Descending FlightAware ADS-B
Thu 08:28:50 PM 37.3690 -123.2210 111° Southeast 349 402 14,100 -1,636 Descending FlightAware ADS-B
Thu 08:29:36 PM 37.3420 -123.1340 111° Southeast 345 397 12,800 -1,605 Descending FlightAware ADS-B
Thu 08:30:16 PM 37.3190 -123.0590 111° Southeast 342 394 11,800 -1,579 Descending FlightAware ADS-B
Thu 08:30:52 PM 37.2980 -122.9940 112° Southeast 340 391 10,800 -1,263 Descending FlightAware ADS-B
Thu 08:31:32 PM 37.2760 -122.9210 111° Southeast 322 371 10,200 -679 Descending FlightAware ADS-B
Thu 08:31:45 PM 37.2687 -122.8990 113° Southeast 313 360 10,200 -286 Level FlightAware ADS-B
Thu 08:31:53 PM 37.2648 -122.8850 109° East 306 352 10,100 -400 Descending FlightAware ADS-B
Thu 08:32:00 PM 37.2627 -122.8720 101° East 303 349 10,100 -545 Level FlightAware ADS-B
Thu 08:32:04 PM 37.2621 -122.8650 96° East 301 346 10,000 -750 Descending FlightAware ADS-B
Thu 08:32:08 PM 37.2620 -122.8590 91° East 300 345 10,000 -667 Level FlightAware ADS-B
Thu 08:32:13 PM 37.2625 -122.8500 86° East 296 341 9,900 -545 Descending FlightAware ADS-B
Thu 08:32:19 PM 37.2635 -122.8410 82° East 291 335 9,900 462 Level FlightAware ADS-B
Thu 08:32:26 PM 37.2659 -122.8290 76° East 285 328 10,000  Climbing FlightAware ADS-B
Thu 08:32:42 PM 37.2714 -122.8050 74° East 274 315 9,900 -545 Descending FlightAware ADS-B
Thu 08:32:59 PM 37.2773 -122.7790 74° East 271 312 9,700 -923 Descending FlightAware ADS-B
Thu 08:33:21 PM 37.2851 -122.7460 73° East 268 308 9,300 -1,024 Descending FlightAware ADS-B
Thu 08:33:40 PM 37.2918 -122.7170 74° East 267 307 9,000 -1,067 Descending FlightAware ADS-B
Thu 08:34:06 PM 37.3006 -122.6800 73° East 263 303 8,500 -1,024 Descending FlightAware ADS-B
Thu 08:34:21 PM 37.3057 -122.6580 74° East 261 300 8,300 -960 Descending FlightAware ADS-B
Thu 08:34:31 PM 37.3092 -122.6430 74° East 261 300 8,100 -692 Descending FlightAware ADS-B
Thu 08:34:47 PM 37.3144 -122.6200 74° East 260 299 8,000 -102 Descending FlightAware ADS-B
Thu 08:35:30 PM 37.2980 -122.5660 111° Southeast 251 289 8,000  Level FlightAware ADS-B
Thu 08:35:50 PM 37.2761 -122.5530 155° Southeast 252 290 8,000  Level FlightAware ADS-B
Thu 08:36:05 PM 37.2599 -122.5430 154° Southeast 252 290 8,000  Level FlightAware ADS-B
Thu 08:36:20 PM 37.2438 -122.5340 156° South 253 291 8,000  Level FlightAware ADS-B
Thu 08:36:31 PM 37.2326 -122.5270 154° Southeast 252 290 8,000  Level FlightAware ADS-B
Thu 08:36:35 PM 37.2281 -122.5240 152° Southeast 253 291 8,000  Level FlightAware ADS-B
Thu 08:36:40 PM 37.2234 -122.5210 153° Southeast 254 292 8,000  Level FlightAware ADS-B
Thu 08:36:44 PM 37.2198 -122.5170 138° Southeast 253 291 8,000  Level FlightAware ADS-B
Thu 08:36:47 PM 37.2169 -122.5130 132° Southeast 255 293 8,000  Level FlightAware ADS-B
Thu 08:36:50 PM 37.2147 -122.5100 133° Southeast 254 292 8,000  Level FlightAware ADS-B
Thu 08:36:56 PM 37.2117 -122.5030 118° Southeast 255 293 8,000  Level FlightAware ADS-B
Thu 08:36:59 PM 37.2102 -122.4990 115° Southeast 255 293 8,000  Level FlightAware ADS-B
Thu 08:37:02 PM 37.2089 -122.4940 108° East 255 293 8,000  Level FlightAware ADS-B
Thu 08:37:09 PM 37.2068 -122.4840 105° East 255 293 8,000  Level FlightAware ADS-B
Thu 08:37:25 PM 37.2025 -122.4620 104° East 255 293 8,000  Level FlightAware ADS-B
Thu 08:37:40 PM 37.1982 -122.4400 104° East 255 293 8,000  Level FlightAware ADS-B
Thu 08:37:55 PM 37.1940 -122.4180 103° East 255 293 8,000  Level FlightAware ADS-B
Thu 08:38:11 PM 37.1897 -122.3960 104° East 255 293 8,000  Level FlightAware ADS-B
Thu 08:38:18 PM 37.1879 -122.3850 102° East 256 295 8,000  Level FlightAware ADS-B
Thu 08:38:23 PM 37.1875 -122.3780 94° East 257 296 8,000  Level FlightAware ADS-B
Thu 08:38:31 PM 37.1887 -122.3670 82° East 257 296 8,000  Level FlightAware ADS-B
Thu 08:38:35 PM 37.1904 -122.3600 73° East 258 297 8,000  Level FlightAware ADS-B
Thu 08:38:41 PM 37.1937 -122.3520 63° Northeast 260 299 8,000  Level FlightAware ADS-B
Thu 08:38:45 PM 37.1963 -122.3470 57° Northeast 260 299 8,000  Level FlightAware ADS-B
Thu 08:39:10 PM 37.2140 -122.3170 53° Northeast 262 302 8,000  Level FlightAware ADS-B
Thu 08:39:25 PM 37.2253 -122.2980 53° Northeast 262 302 8,000  Level FlightAware ADS-B
Thu 08:39:42 PM 37.2371 -122.2780 53° Northeast 264 304 8,000  Level FlightAware ADS-B
Thu 08:39:57 PM 37.2480 -122.2600 53° Northeast 263 303 8,000  Level FlightAware ADS-B
Thu 08:40:12 PM 37.2589 -122.2410 54° Northeast 264 304 8,000 -400 Level FlightAware ADS-B
Thu 08:40:27 PM 37.2700 -122.2220 54° Northeast 261 300 7,800 -968 Descending FlightAware ADS-B
Thu 08:40:43 PM 37.2808 -122.2030 54° Northeast 258 297 7,500 -1,250 Descending FlightAware ADS-B
Thu 08:40:51 PM 37.2872 -122.1930 51° Northeast 253 291 7,300 -1,846 Descending FlightAware ADS-B
Thu 08:40:56 PM 37.2908 -122.1880 48° Northeast 253 291 7,100 -2,250 Descending FlightAware ADS-B
Thu 08:40:59 PM 37.2937 -122.1850 39° Northeast 251 289 7,000 -1,800 Descending FlightAware ADS-B
Thu 08:41:16 PM 37.3103 -122.1740 28° Northeast 248 285 6,500 -1,125 Descending FlightAware ADS-B
Thu 08:41:31 PM 37.3257 -122.1650 25° Northeast 241 277 6,400 -400 Descending FlightAware ADS-B
Thu 08:41:46 PM 37.3407 -122.1560 26° Northeast 233 268 6,300 -581 Descending FlightAware ADS-B
Thu 08:42:02 PM 37.3560 -122.1470 25° Northeast 229 264 6,100 -968 Descending FlightAware ADS-B
Thu 08:42:17 PM 37.3708 -122.1380 26° Northeast 227 261 5,800 -1,034 Descending FlightAware ADS-B
Thu 08:42:31 PM 37.3834 -122.1300 27° Northeast 227 261 5,600 -1,034 Descending FlightAware ADS-B
Thu 08:42:46 PM 37.3978 -122.1210 26° Northeast 225 259 5,300 -968 Descending FlightAware ADS-B
Thu 08:43:02 PM 37.4125 -122.1120 26° Northeast 219 252 5,100 -615 Descending FlightAware ADS-B
Thu 08:43:25 PM 37.4325 -122.0990 27° Northeast 209 241 4,900 -343 Descending FlightAware ADS-B
Thu 08:43:37 PM 37.4429 -122.0930 25° Northeast 207 238 4,900  Level FlightAware ADS-B
Thu 08:43:41 PM 37.4470 -122.0910 21° North 206 237 4,900 857 Level FlightAware ADS-B
Thu 08:43:44 PM 37.4498 -122.0900 16° North 205 236 5,000 857 Climbing FlightAware ADS-B
Thu 08:43:48 PM 37.4530 -122.0900 360° North 204 235 5,000  Level FlightAware ADS-B
Thu 08:43:53 PM 37.4584 -122.0900 360° North 204 235 5,000  Level FlightAware ADS-B
Thu 08:43:59 PM 37.4633 -122.0920 342° North 203 234 5,000  Level FlightAware ADS-B
Thu 08:44:10 PM 37.4729 -122.0960 342° North 201 231 5,000  Level FlightAware ADS-B
Thu 08:44:16 PM 37.4782 -122.0970 351° North 203 234 5,000 -333 Level FlightAware ADS-B
Thu 08:44:28 PM 37.4899 -122.0970 360° North 205 236 4,900 -1,154 Descending FlightAware ADS-B
Thu 08:44:42 PM 37.5023 -122.1020 342° North 202 232 4,500 -1,750 Descending FlightAware ADS-B
Thu 08:44:52 PM 37.5086 -122.1090 319° Northwest 193 222 4,200 -1,846 Descending FlightAware ADS-B
Thu 08:44:55 PM 37.5101 -122.1120 302° West 193 222 4,100 -1,800 Descending FlightAware ADS-B
Thu 08:45:02 PM 37.5135 -122.1190 301° West 192 221 3,900 -2,000 Descending FlightAware ADS-B
Thu 08:45:13 PM 37.5184 -122.1300 299° West 191 220 3,500 -1,565 Descending FlightAware ADS-B
Thu 08:45:25 PM 37.5232 -122.1410 299° West 185 213 3,300 -1,333 Descending FlightAware ADS-B
Thu 08:45:40 PM 37.5290 -122.1550 298° West 181 208 2,900 -1,548 Descending FlightAware ADS-B
Thu 08:45:56 PM 37.5347 -122.1690 297° West 176 203 2,500 -1,355 Descending FlightAware ADS-B
Thu 08:46:11 PM 37.5401 -122.1820 298° West 167 192 2,200 -1,333 Descending FlightAware ADS-B
Thu 08:46:23 PM 37.5444 -122.1930 296° West 165 190 1,900 -1,091 Descending FlightAware ADS-B
Thu 08:46:33 PM 37.5480 -122.2020 297° West 164 189 1,800 -545 Descending FlightAware ADS-B
Thu 08:46:45 PM 37.5525 -122.2120 300° West 169 194 1,700 -231 Descending FlightAware ADS-B
Thu 08:46:59 PM 37.5574 -122.2240 297° West 164 189 1,700 214 Level FlightAware ADS-B
Thu 08:47:13 PM 37.5623 -122.2360 297° West 164 189 1,800 240 Climbing FlightAware ADS-B
Thu 08:47:24 PM 37.5661 -122.2440 301° West 163 188 1,800  Level FlightAware ADS-B
Thu 08:47:39 PM 37.5714 -122.2570 297° West 163 188 1,800 -522 Level FlightAware ADS-B
Thu 08:47:47 PM 37.5745 -122.2640 299° West 161 185 1,600 -1,043 Descending FlightAware ADS-B
Thu 08:48:02 PM 37.5796 -122.2770 296° West 157 181 1,400 -800 Descending FlightAware ADS-B
Thu 08:48:17 PM 37.5845 -122.2890 297° West 153 176 1,200 -727 Descending FlightAware ADS-B
Thu 08:48:35 PM 37.5901 -122.3020 299° West 154 177 1,000 -789 Descending FlightAware ADS-B
Thu 08:48:55 PM 37.5971 -122.3180 299° West 154 177 700 -938 Descending FlightAware ADS-B
Thu 08:49:07 PM 37.6012 -122.3280 297° West 147 169 500 -783 Descending FlightAware ADS-B
Thu 08:49:18 PM 37.6047 -122.3360 299° West 145 167 400 -667 Descending FlightAware ADS-B
Thu 08:49:34 PM 37.6094 -122.3470 298° West 142 163 200 -783 Descending FlightAware ADS-B
Thu 08:49:41 PM 37.6117 -122.3530 296° West 138 159 100 -857 Descending FlightAware ADS-B

Login

Don't have an account? Register now (free) for customized features, flight alerts, and more!